Time,TemperatureF,DewpointF,PressureIn,WindDirection,WindDirectionDegrees,WindSpeedMPH,WindSpeedGustMPH,Humidity,HourlyPrecipIn,Conditions,Clouds,dailyrainin,SoftwareType,DateUTC
2013-02-02 00:06:00,44.0,41.5,30.24,NNW,328,0.0,3.0,91,0.00,,,0.00,Wunderground v.1.15,2013-02-02 08:06:00,
2013-02-02 00:07:00,44.1,41.6,30.24,NNW,328,0.0,3.0,91,0.00,,,0.00,Wunderground v.1.15,2013-02-02 08:07:00,
2013-02-02 00:08:00,44.1,41.6,30.24,NNW,328,0.0,3.0,91,0.00,,,0.00,Wunderground v.1.15,2013-02-02 08:08:00,
2013-02-02 00:12:00,44.0,41.3,30.24,NNW,328,0.0,3.0,90,0.00,,,0.00,Wunderground v.1.15,2013-02-02 08:12:00,
2013-02-02 00:13:00,43.9,41.2,30.24,NNW,328,0.0,3.0,90,0.00,,,0.00,Wunderground v.1.15,2013-02-02 08:13:00,
2013-02-02 00:18:00,43.8,41.1,30.24,NNW,328,0.0,3.0,90,0.00,,,0.00,Wunderground v.1.15,2013-02-02 08:18:00,
2013-02-02 00:20:00,43.7,41.0,30.24,NNW,328,0.0,3.0,90,0.00,,,0.00,Wunderground v.1.15,2013-02-02 08:20:00,
2013-02-02 00:23:00,43.5,40.8,30.24,NNW,328,1.0,3.0,90,0.00,,,0.00,Wunderground v.1.15,2013-02-02 08:23:00,
2013-02-02 00:24:00,43.4,40.7,30.24,North,359,1.0,3.0,90,0.00,,,0.00,Wunderground v.1.15,2013-02-02 08:24:00,
2013-02-02 00:28:00,43.2,40.8,30.24,NNW,328,0.0,3.0,91,0.00,,,0.00,Wunderground v.1.15,2013-02-02 08:28:00,
2013-02-02 00:29:00,43.2,40.5,30.25,NNW,328,0.0,3.0,90,0.00,,,0.00,Wunderground v.1.15,2013-02-02 08:29:00,
2013-02-02 00:30:00,43.2,40.8,30.25,NNW,328,0.0,3.0,91,0.00,,,0.00,Wunderground v.1.15,2013-02-02 08:30:00,
2013-02-02 00:35:00,43.2,40.8,30.24,NNW,328,0.0,3.0,91,0.00,,,0.00,Wunderground v.1.15,2013-02-02 08:35:00,
2013-02-02 00:36:00,43.2,41.0,30.24,NNW,328,0.0,3.0,92,0.00,,,0.00,Wunderground v.1.15,2013-02-02 08:36:00,
2013-02-02 00:37:00,43.2,41.0,30.24,NNW,328,0.0,3.0,92,0.00,,,0.00,Wunderground v.1.15,2013-02-02 08:37:00,
2013-02-02 00:41:00,43.3,41.1,30.25,NNW,328,0.0,3.0,92,0.00,,,0.00,Wunderground v.1.15,2013-02-02 08:41:00,
2013-02-02 00:43:00,43.4,41.2,30.25,NNW,328,0.0,3.0,92,0.00,,,0.00,Wunderground v.1.15,2013-02-02 08:43:00,
2013-02-02 00:46:00,43.5,41.3,30.24,NNW,328,0.0,3.0,92,0.00,,,0.00,Wunderground v.1.15,2013-02-02 08:46:00,
2013-02-02 00:47:00,43.6,41.4,30.24,NNW,328,0.0,3.0,92,0.00,,,0.00,Wunderground v.1.15,2013-02-02 08:47:00,
2013-02-02 00:51:00,43.6,41.4,30.24,NNW,328,0.0,3.0,92,0.00,,,0.00,Wunderground v.1.15,2013-02-02 08:51:00,
2013-02-02 00:52:00,43.6,41.4,30.25,NNW,328,0.0,3.0,92,0.00,,,0.00,Wunderground v.1.15,2013-02-02 08:52:00,
2013-02-02 00:58:00,43.4,40.9,30.25,NNW,328,0.0,3.0,91,0.00,,,0.00,Wunderground v.1.15,2013-02-02 08:58:00,
2013-02-02 00:59:00,43.4,40.9,30.25,NNW,328,0.0,3.0,91,0.00,,,0.00,Wunderground v.1.15,2013-02-02 08:59:00,
2013-02-02 01:02:00,43.2,40.8,30.25,NNW,328,0.0,3.0,91,0.00,,,0.00,Wunderground v.1.15,2013-02-02 09:02:00,
2013-02-02 01:04:00,43.1,40.7,30.25,NNW,328,0.0,3.0,91,0.00,,,0.00,Wunderground v.1.15,2013-02-02 09:04:00,
2013-02-02 01:06:00,42.9,40.5,30.25,NNW,328,0.0,3.0,91,0.00,,,0.00,Wunderground v.1.15,2013-02-02 09:06:00,
2013-02-02 01:09:00,42.9,40.7,30.25,NNW,328,1.0,3.0,92,0.00,,,0.00,Wunderground v.1.15,2013-02-02 09:09:00,
2013-02-02 01:10:00,42.8,40.6,30.25,NNW,328,1.0,3.0,92,0.00,,,0.00,Wunderground v.1.15,2013-02-02 09:10:00,
2013-02-02 01:12:00,42.8,40.4,30.25,NNW,328,1.0,3.0,91,0.00,,,0.00,Wunderground v.1.15,2013-02-02 09:12:00,
2013-02-02 01:16:00,42.6,40.4,30.25,NNW,328,1.0,3.0,92,0.00,,,0.00,Wunderground v.1.15,2013-02-02 09:16:00,
2013-02-02 01:20:00,42.5,40.1,30.25,NNW,328,1.0,1.0,91,0.00,,,0.00,Wunderground v.1.15,2013-02-02 09:20:00,
2013-02-02 01:21:00,42.4,40.2,30.25,NNW,328,0.0,3.0,92,0.00,,,0.00,Wunderground v.1.15,2013-02-02 09:21:00,
2013-02-02 01:25:00,42.3,39.9,30.25,NNW,328,0.0,3.0,91,0.00,,,0.00,Wunderground v.1.15,2013-02-02 09:25:00,
2013-02-02 01:27:00,42.3,40.1,30.25,NNW,328,0.0,3.0,92,0.00,,,0.00,Wunderground v.1.15,2013-02-02 09:27:00,
2013-02-02 01:29:00,42.3,40.1,30.25,NNW,328,0.0,3.0,92,0.00,,,0.00,Wunderground v.1.15,2013-02-02 09:29:00,
2013-02-02 01:32:00,42.2,40.0,30.25,NNW,328,0.0,3.0,92,0.00,,,0.00,Wunderground v.1.15,2013-02-02 09:32:00,
2013-02-02 01:34:00,42.3,40.1,30.25,NNW,328,0.0,3.0,92,0.00,,,0.00,Wunderground v.1.15,2013-02-02 09:34:00,
2013-02-02 01:35:00,42.3,40.1,30.25,NNW,328,0.0,3.0,92,0.00,,,0.00,Wunderground v.1.15,2013-02-02 09:35:00,
2013-02-02 01:40:00,42.4,40.2,30.25,NNW,328,0.0,3.0,92,0.00,,,0.00,Wunderground v.1.15,2013-02-02 09:40:00,
2013-02-02 01:41:00,42.4,40.2,30.25,NNW,328,0.0,3.0,92,0.00,,,0.00,Wunderground v.1.15,2013-02-02 09:41:00,
2013-02-02 01:42:00,42.4,40.2,30.25,NNW,328,0.0,3.0,92,0.00,,,0.00,Wunderground v.1.15,2013-02-02 09:42:00,
2013-02-02 01:47:00,42.4,40.2,30.26,NNW,328,0.0,3.0,92,0.00,,,0.00,Wunderground v.1.15,2013-02-02 09:47:00,
2013-02-02 01:48:00,42.4,40.2,30.26,NNW,328,0.0,3.0,92,0.00,,,0.00,Wunderground v.1.15,2013-02-02 09:48:00,
2013-02-02 01:49:00,42.4,40.2,30.26,NNW,328,0.0,3.0,92,0.00,,,0.00,Wunderground v.1.15,2013-02-02 09:49:00,
2013-02-02 01:52:00,42.3,40.1,30.26,NNW,328,0.0,3.0,92,0.00,,,0.00,Wunderground v.1.15,2013-02-02 09:52:00,
2013-02-02 01:54:00,42.1,39.9,30.26,North,359,0.0,3.0,92,0.00,,,0.00,Wunderground v.1.15,2013-02-02 09:54:00,
2013-02-02 01:59:00,41.8,39.6,30.26,NNW,328,0.0,3.0,92,0.00,,,0.00,Wunderground v.1.15,2013-02-02 09:59:00,
2013-02-02 02:02:00,41.6,39.4,30.26,NNW,328,0.0,3.0,92,0.00,,,0.00,Wunderground v.1.15,2013-02-02 10:02:00,
2013-02-02 02:05:00,41.4,39.3,30.26,NNW,328,1.0,3.0,92,0.00,,,0.00,Wunderground v.1.15,2013-02-02 10:05:00,
2013-02-02 02:06:00,41.3,39.2,30.26,NNW,328,1.0,3.0,92,0.00,,,0.00,Wunderground v.1.15,2013-02-02 10:06:00,
2013-02-02 02:07:00,41.3,39.2,30.26,NNW,328,1.0,3.0,92,0.00,,,0.00,Wunderground v.1.15,2013-02-02 10:07:00,
2013-02-02 02:11:00,41.4,39.5,30.27,NNW,328,2.0,3.0,93,0.00,,,0.00,Wunderground v.1.15,2013-02-02 10:11:00,
2013-02-02 02:12:00,41.4,39.5,30.27,NNW,328,2.0,3.0,93,0.00,,,0.00,Wunderground v.1.15,2013-02-02 10:12:00,
2013-02-02 02:13:00,41.4,39.5,30.27,NNW,328,2.0,3.0,93,0.00,,,0.00,Wunderground v.1.15,2013-02-02 10:13:00,
2013-02-02 02:16:00,41.3,39.4,30.27,North,359,2.0,3.0,93,0.00,,,0.00,Wunderground v.1.15,2013-02-02 10:16:00,
2013-02-02 02:18:00,41.2,39.3,30.27,NNW,328,2.0,3.0,93,0.00,,,0.00,Wunderground v.1.15,2013-02-02 10:18:00,
2013-02-02 02:20:00,41.2,39.3,30.27,North,359,2.0,3.0,93,0.00,,,0.00,Wunderground v.1.15,2013-02-02 10:20:00,
2013-02-02 02:22:00,41.2,39.3,30.27,NNW,328,1.0,3.0,93,0.00,,,0.00,Wunderground v.1.15,2013-02-02 10:22:00,
2013-02-02 02:26:00,41.4,39.8,30.27,NNW,329,1.0,3.0,94,0.00,,,0.00,Wunderground v.1.15,2013-02-02 10:26:00,
2013-02-02 02:29:00,41.8,40.5,30.27,NNW,331,1.0,3.0,95,0.00,,,0.00,Wunderground v.1.15,2013-02-02 10:29:00,
2013-02-02 02:31:00,42.0,40.4,30.27,North,359,1.0,3.0,94,0.00,,,0.00,Wunderground v.1.15,2013-02-02 10:31:00,
2013-02-02 02:33:00,42.0,40.4,30.27,NNW,331,1.0,3.0,94,0.00,,,0.00,Wunderground v.1.15,2013-02-02 10:33:00,
2013-02-02 02:34:00,42.1,40.5,30.27,NNW,331,1.0,3.0,94,0.00,,,0.00,Wunderground v.1.15,2013-02-02 10:34:00,
2013-02-02 02:37:00,42.1,40.5,30.27,NNW,331,0.0,3.0,94,0.00,,,0.00,Wunderground v.1.15,2013-02-02 10:37:00,
2013-02-02 02:39:00,42.2,40.6,30.27,NNW,331,0.0,3.0,94,0.00,,,0.00,Wunderground v.1.15,2013-02-02 10:39:00,
2013-02-02 02:40:00,42.1,40.5,30.27,NNW,331,0.0,3.0,94,0.00,,,0.00,Wunderground v.1.15,2013-02-02 10:40:00,
2013-02-02 02:44:00,42.0,40.1,30.27,NNW,331,0.0,3.0,93,0.00,,,0.00,Wunderground v.1.15,2013-02-02 10:44:00,
2013-02-02 02:45:00,41.9,40.0,30.27,North,359,0.0,3.0,93,0.00,,,0.00,Wunderground v.1.15,2013-02-02 10:45:00,
2013-02-02 02:50:00,41.7,39.8,30.27,NNW,330,0.0,3.0,93,0.00,,,0.00,Wunderground v.1.15,2013-02-02 10:50:00,
2013-02-02 02:52:00,41.6,39.7,30.27,NNW,331,0.0,3.0,93,0.00,,,0.00,Wunderground v.1.15,2013-02-02 10:52:00,
2013-02-02 02:55:00,41.6,39.7,30.26,NNW,331,0.0,3.0,93,0.00,,,0.00,Wunderground v.1.15,2013-02-02 10:55:00,
2013-02-02 02:57:00,41.7,40.1,30.27,North,359,0.0,3.0,94,0.00,,,0.00,Wunderground v.1.15,2013-02-02 10:57:00,
2013-02-02 03:02:00,41.5,39.6,30.27,NNW,331,0.0,3.0,93,0.00,,,0.00,Wunderground v.1.15,2013-02-02 11:02:00,
2013-02-02 03:04:00,41.3,39.4,30.27,NNW,331,0.0,3.0,93,0.00,,,0.00,Wunderground v.1.15,2013-02-02 11:04:00,
2013-02-02 03:05:00,41.3,39.4,30.27,NNW,331,0.0,3.0,93,0.00,,,0.00,Wunderground v.1.15,2013-02-02 11:05:00,
2013-02-02 03:06:00,41.3,39.4,30.27,NNW,331,0.0,3.0,93,0.00,,,0.00,Wunderground v.1.15,2013-02-02 11:06:00,
2013-02-02 03:08:00,41.3,39.4,30.26,North,359,0.0,3.0,93,0.00,,,0.00,Wunderground v.1.15,2013-02-02 11:08:00,
2013-02-02 03:13:00,41.4,39.8,30.27,NNW,331,0.0,3.0,94,0.00,,,0.00,Wunderground v.1.15,2013-02-02 11:13:00,
2013-02-02 03:14:00,41.4,39.8,30.27,NNW,331,0.0,3.0,94,0.00,,,0.00,Wunderground v.1.15,2013-02-02 11:14:00,
2013-02-02 03:15:00,41.4,39.8,30.26,NNW,331,0.0,3.0,94,0.00,,,0.00,Wunderground v.1.15,2013-02-02 11:15:00,
2013-02-02 03:18:00,41.8,40.2,30.26,North,359,0.0,3.0,94,0.00,,,0.00,Wunderground v.1.15,2013-02-02 11:18:00,
2013-02-02 03:21:00,42.2,40.9,30.27,North,359,0.0,3.0,95,0.00,,,0.00,Wunderground v.1.15,2013-02-02 11:21:00,
2013-02-02 03:24:00,42.0,40.1,30.27,NNW,331,0.0,3.0,93,0.00,,,0.00,Wunderground v.1.15,2013-02-02 11:24:00,
2013-02-02 03:25:00,42.0,40.1,30.27,NNW,331,0.0,3.0,93,0.00,,,0.00,Wunderground v.1.15,2013-02-02 11:25:00,
2013-02-02 03:27:00,41.8,39.9,30.27,NNW,331,0.0,3.0,93,0.00,,,0.00,Wunderground v.1.15,2013-02-02 11:27:00,
2013-02-02 03:28:00,41.8,39.9,30.27,NNW,331,0.0,3.0,93,0.00,,,0.00,Wunderground v.1.15,2013-02-02 11:28:00,
2013-02-02 03:30:00,41.9,40.0,30.27,North,359,1.0,3.0,93,0.00,,,0.00,Wunderground v.1.15,2013-02-02 11:30:00,
2013-02-02 03:31:00,42.0,40.4,30.27,NNW,331,1.0,3.0,94,0.00,,,0.00,Wunderground v.1.15,2013-02-02 11:31:00,
2013-02-02 03:33:00,42.0,40.4,30.27,NNW,331,1.0,3.0,94,0.00,,,0.00,Wunderground v.1.15,2013-02-02 11:33:00,
2013-02-02 03:35:00,42.1,40.5,30.27,NNW,331,2.0,5.0,94,0.00,,,0.00,Wunderground v.1.15,2013-02-02 11:35:00,
2013-02-02 03:40:00,42.4,40.8,30.27,North,359,3.0,3.0,94,0.00,,,0.00,Wunderground v.1.15,2013-02-02 11:40:00,
2013-02-02 03:41:00,42.5,40.9,30.26,NNW,331,3.0,4.0,94,0.00,,,0.00,Wunderground v.1.15,2013-02-02 11:41:00,
2013-02-02 03:43:00,42.9,41.3,30.26,North,359,4.0,5.0,94,0.00,,,0.00,Wunderground v.1.15,2013-02-02 11:43:00,
2013-02-02 03:45:00,43.0,41.4,30.26,NNW,331,4.0,5.0,94,0.00,,,0.00,Wunderground v.1.15,2013-02-02 11:45:00,
2013-02-02 03:48:00,43.1,41.5,30.26,NNW,331,4.0,5.0,94,0.00,,,0.00,Wunderground v.1.15,2013-02-02 11:48:00,
2013-02-02 03:49:00,43.0,41.4,30.26,NNW,331,4.0,5.0,94,0.00,,,0.00,Wunderground v.1.15,2013-02-02 11:49:00,
2013-02-02 03:51:00,42.9,41.3,30.26,NNW,331,4.0,4.0,94,0.00,,,0.00,Wunderground v.1.15,2013-02-02 11:51:00,
2013-02-02 03:54:00,42.8,41.2,30.27,North,359,3.0,4.0,94,0.00,,,0.00,Wunderground v.1.15,2013-02-02 11:54:00,
2013-02-02 03:56:00,42.8,41.2,30.26,North,359,3.0,4.0,94,0.00,,,0.00,Wunderground v.1.15,2013-02-02 11:56:00,
2013-02-02 03:58:00,42.8,41.2,30.26,North,359,3.0,4.0,94,0.00,,,0.00,Wunderground v.1.15,2013-02-02 11:58:00,
2013-02-02 04:01:00,42.7,41.1,30.26,NNW,331,3.0,3.0,94,0.00,,,0.00,Wunderground v.1.15,2013-02-02 12:01:00,
2013-02-02 04:02:00,42.7,41.1,30.26,NNW,331,3.0,3.0,94,0.00,,,0.00,Wunderground v.1.15,2013-02-02 12:02:00,
2013-02-02 04:03:00,42.7,41.1,30.26,NNW,331,3.0,3.0,94,0.00,,,0.00,Wunderground v.1.15,2013-02-02 12:03:00,
2013-02-02 04:08:00,42.5,40.6,30.26,NNW,331,2.0,3.0,93,0.00,,,0.00,Wunderground v.1.15,2013-02-02 12:08:00,
2013-02-02 04:09:00,42.4,40.8,30.26,NNW,331,2.0,3.0,94,0.00,,,0.00,Wunderground v.1.15,2013-02-02 12:09:00,
2013-02-02 04:10:00,42.4,40.8,30.26,NNW,331,1.0,3.0,94,0.00,,,0.00,Wunderground v.1.15,2013-02-02 12:10:00,
2013-02-02 04:12:00,42.5,40.9,30.26,NNW,331,1.0,3.0,94,0.00,,,0.00,Wunderground v.1.15,2013-02-02 12:12:00,
2013-02-02 04:18:00,42.7,41.4,30.26,NNW,331,0.0,3.0,95,0.00,,,0.00,Wunderground v.1.15,2013-02-02 12:18:00,
2013-02-02 04:19:00,42.8,41.5,30.26,North,359,0.0,3.0,95,0.00,,,0.00,Wunderground v.1.15,2013-02-02 12:19:00,
2013-02-02 04:20:00,42.8,41.5,30.26,North,359,0.0,3.0,95,0.00,,,0.00,Wunderground v.1.15,2013-02-02 12:20:00,
2013-02-02 04:22:00,42.9,41.6,30.26,NNW,331,0.0,3.0,95,0.00,,,0.00,Wunderground v.1.15,2013-02-02 12:22:00,
2013-02-02 04:25:00,42.8,41.2,30.26,NNW,331,0.0,3.0,94,0.00,,,0.00,Wunderground v.1.15,2013-02-02 12:25:00,
2013-02-02 04:26:00,42.8,41.2,30.26,NNW,331,0.0,3.0,94,0.00,,,0.00,Wunderground v.1.15,2013-02-02 12:26:00,
2013-02-02 04:28:00,42.7,41.1,30.26,NNW,331,0.0,3.0,94,0.00,,,0.00,Wunderground v.1.15,2013-02-02 12:28:00,
2013-02-02 04:31:00,42.5,40.9,30.26,NNW,331,0.0,3.0,94,0.00,,,0.00,Wunderground v.1.15,2013-02-02 12:31:00,
2013-02-02 04:33:00,42.5,40.9,30.26,NNW,331,0.0,3.0,94,0.00,,,0.00,Wunderground v.1.15,2013-02-02 12:33:00,
2013-02-02 04:34:00,42.6,41.0,30.26,NNW,331,0.0,3.0,94,0.00,,,0.00,Wunderground v.1.15,2013-02-02 12:34:00,
2013-02-02 04:36:00,42.6,41.3,30.26,NNW,331,0.0,3.0,95,0.00,,,0.00,Wunderground v.1.15,2013-02-02 12:36:00,
2013-02-02 04:39:00,42.5,40.9,30.26,NNW,331,0.0,3.0,94,0.00,,,0.00,Wunderground v.1.15,2013-02-02 12:39:00,
2013-02-02 04:40:00,42.5,40.9,30.26,NNW,331,0.0,3.0,94,0.00,,,0.00,Wunderground v.1.15,2013-02-02 12:40:00,
2013-02-02 04:41:00,42.5,40.9,30.26,NNW,331,0.0,3.0,94,0.00,,,0.00,Wunderground v.1.15,2013-02-02 12:41:00,
2013-02-02 04:43:00,42.4,40.8,30.26,NNW,331,0.0,3.0,94,0.00,,,0.00,Wunderground v.1.15,2013-02-02 12:43:00,
2013-02-02 04:46:00,42.3,40.7,30.26,NNW,331,0.0,3.0,94,0.00,,,0.00,Wunderground v.1.15,2013-02-02 12:46:00,
2013-02-02 04:47:00,42.2,40.6,30.26,North,359,0.0,3.0,94,0.00,,,0.00,Wunderground v.1.15,2013-02-02 12:47:00,
2013-02-02 04:52:00,41.7,40.1,30.26,NNW,331,0.0,3.0,94,0.00,,,0.00,Wunderground v.1.15,2013-02-02 12:52:00,
2013-02-02 04:53:00,41.7,40.1,30.26,NNW,331,0.0,3.0,94,0.00,,,0.00,Wunderground v.1.15,2013-02-02 12:53:00,
2013-02-02 04:56:00,41.6,40.0,30.26,NNW,331,0.0,3.0,94,0.00,,,0.00,Wunderground v.1.15,2013-02-02 12:56:00,
2013-02-02 04:58:00,41.6,40.0,30.26,NNW,331,0.0,3.0,94,0.00,,,0.00,Wunderground v.1.15,2013-02-02 12:58:00,
2013-02-02 04:59:00,41.5,39.9,30.26,North,359,0.0,3.0,94,0.00,,,0.00,Wunderground v.1.15,2013-02-02 12:59:00,
2013-02-02 05:02:00,41.4,39.8,30.26,NNW,331,0.0,3.0,94,0.00,,,0.00,Wunderground v.1.15,2013-02-02 13:02:00,
2013-02-02 05:03:00,41.4,39.8,30.26,NNW,331,0.0,3.0,94,0.00,,,0.00,Wunderground v.1.15,2013-02-02 13:03:00,
2013-02-02 05:06:00,41.3,39.7,30.26,North,359,0.0,3.0,94,0.00,,,0.00,Wunderground v.1.15,2013-02-02 13:06:00,
2013-02-02 05:07:00,41.3,39.7,30.26,NNW,331,0.0,3.0,94,0.00,,,0.00,Wunderground v.1.15,2013-02-02 13:07:00,
2013-02-02 05:09:00,41.3,39.7,30.26,NNW,331,0.0,3.0,94,0.00,,,0.00,Wunderground v.1.15,2013-02-02 13:09:00,
2013-02-02 05:10:00,41.3,40.0,30.26,NNW,331,0.0,3.0,95,0.00,,,0.00,Wunderground v.1.15,2013-02-02 13:10:00,
2013-02-02 05:15:00,41.2,39.6,30.26,North,359,0.0,3.0,94,0.00,,,0.00,Wunderground v.1.15,2013-02-02 13:15:00,
2013-02-02 05:16:00,41.2,39.9,30.26,NNW,331,0.0,3.0,95,0.00,,,0.00,Wunderground v.1.15,2013-02-02 13:16:00,
2013-02-02 05:21:00,41.2,39.9,30.26,NNW,331,0.0,3.0,95,0.00,,,0.00,Wunderground v.1.15,2013-02-02 13:21:00,
2013-02-02 05:22:00,41.2,39.9,30.26,North,359,0.0,3.0,95,0.00,,,0.00,Wunderground v.1.15,2013-02-02 13:22:00,
2013-02-02 05:23:00,41.2,39.9,30.26,NNW,331,0.0,3.0,95,0.00,,,0.00,Wunderground v.1.15,2013-02-02 13:23:00,
2013-02-02 05:28:00,41.1,39.8,30.26,NNW,331,0.0,3.0,95,0.00,,,0.00,Wunderground v.1.15,2013-02-02 13:28:00,
2013-02-02 05:30:00,41.1,39.8,30.26,NNW,331,0.0,3.0,95,0.00,,,0.00,Wunderground v.1.15,2013-02-02 13:30:00,
2013-02-02 05:31:00,41.1,39.8,30.26,North,359,0.0,3.0,95,0.00,,,0.00,Wunderground v.1.15,2013-02-02 13:31:00,
2013-02-02 05:36:00,41.2,39.9,30.26,NNW,331,0.0,3.0,95,0.00,,,0.00,Wunderground v.1.15,2013-02-02 13:36:00,
2013-02-02 05:37:00,41.2,39.9,30.26,North,359,0.0,3.0,95,0.00,,,0.00,Wunderground v.1.15,2013-02-02 13:37:00,
2013-02-02 05:38:00,41.2,39.9,30.26,NNW,331,0.0,3.0,95,0.00,,,0.00,Wunderground v.1.15,2013-02-02 13:38:00,
2013-02-02 05:43:00,41.1,39.8,30.27,NNW,331,0.0,3.0,95,0.00,,,0.00,Wunderground v.1.15,2013-02-02 13:43:00,
2013-02-02 05:44:00,41.1,39.8,30.27,NNW,331,0.0,3.0,95,0.00,,,0.00,Wunderground v.1.15,2013-02-02 13:44:00,
2013-02-02 05:45:00,41.1,39.8,30.27,NNW,331,0.0,3.0,95,0.00,,,0.00,Wunderground v.1.15,2013-02-02 13:45:00,
2013-02-02 05:48:00,41.1,39.8,30.27,NNW,331,0.0,3.0,95,0.00,,,0.00,Wunderground v.1.15,2013-02-02 13:48:00,
2013-02-02 05:50:00,41.1,39.8,30.27,NNW,331,0.0,3.0,95,0.00,,,0.00,Wunderground v.1.15,2013-02-02 13:50:00,
2013-02-02 05:52:00,41.1,39.8,30.27,NNW,331,0.0,3.0,95,0.00,,,0.00,Wunderground v.1.15,2013-02-02 13:52:00,
2013-02-02 05:56:00,41.2,39.9,30.27,NNW,331,0.0,3.0,95,0.00,,,0.00,Wunderground v.1.15,2013-02-02 13:56:00,
2013-02-02 05:59:00,41.2,39.9,30.27,North,359,0.0,3.0,95,0.00,,,0.00,Wunderground v.1.15,2013-02-02 13:59:00,
2013-02-02 06:03:00,41.3,40.0,30.27,NNW,331,0.0,3.0,95,0.00,,,0.00,Wunderground v.1.15,2013-02-02 14:03:00,
2013-02-02 06:05:00,41.3,40.0,30.27,NNW,330,0.0,3.0,95,0.00,,,0.00,Wunderground v.1.15,2013-02-02 14:05:00,
2013-02-02 06:08:00,41.3,40.0,30.26,NNW,331,0.0,3.0,95,0.00,,,0.00,Wunderground v.1.15,2013-02-02 14:08:00,
2013-02-02 06:09:00,41.2,39.6,30.26,NNW,331,0.0,3.0,94,0.00,,,0.00,Wunderground v.1.15,2013-02-02 14:09:00,
2013-02-02 06:12:00,41.2,39.9,30.26,NNW,331,0.0,3.0,95,0.00,,,0.00,Wunderground v.1.15,2013-02-02 14:12:00,
2013-02-02 06:17:00,41.0,39.4,30.26,NNW,331,0.0,3.0,94,0.00,,,0.00,Wunderground v.1.15,2013-02-02 14:17:00,
2013-02-02 06:19:00,41.0,39.4,30.26,North,359,0.0,3.0,94,0.00,,,0.00,Wunderground v.1.15,2013-02-02 14:19:00,
2013-02-02 06:20:00,41.0,39.7,30.26,North,359,0.0,3.0,95,0.00,,,0.00,Wunderground v.1.15,2013-02-02 14:20:00,
2013-02-02 06:24:00,41.2,39.9,30.26,NNW,331,0.0,3.0,95,0.00,,,0.00,Wunderground v.1.15,2013-02-02 14:24:00,
2013-02-02 06:25:00,41.2,39.9,30.26,North,359,0.0,3.0,95,0.00,,,0.00,Wunderground v.1.15,2013-02-02 14:25:00,
2013-02-02 06:29:00,41.3,40.0,30.27,North,359,0.0,3.0,95,0.00,,,0.00,Wunderground v.1.15,2013-02-02 14:29:00,
2013-02-02 06:30:00,41.4,40.1,30.27,NNW,331,0.0,3.0,95,0.00,,,0.00,Wunderground v.1.15,2013-02-02 14:30:00,
2013-02-02 06:31:00,41.5,40.2,30.27,North,359,0.0,3.0,95,0.00,,,0.00,Wunderground v.1.15,2013-02-02 14:31:00,
2013-02-02 06:34:00,41.4,40.1,30.27,NNW,331,0.0,3.0,95,0.00,,,0.00,Wunderground v.1.15,2013-02-02 14:34:00,
2013-02-02 06:37:00,41.1,39.5,30.27,NNW,331,0.0,3.0,94,0.00,,,0.00,Wunderground v.1.15,2013-02-02 14:37:00,
2013-02-02 06:40:00,40.9,39.3,30.28,NNW,331,0.0,3.0,94,0.00,,,0.00,Wunderground v.1.15,2013-02-02 14:40:00,
2013-02-02 06:43:00,40.7,39.1,30.28,NNW,331,0.0,3.0,94,0.00,,,0.00,Wunderground v.1.15,2013-02-02 14:43:00,
2013-02-02 06:48:00,40.8,39.5,30.28,NNW,331,0.0,3.0,95,0.00,,,0.00,Wunderground v.1.15,2013-02-02 14:48:00,
2013-02-02 06:49:00,40.9,39.6,30.28,NNW,331,0.0,3.0,95,0.00,,,0.00,Wunderground v.1.15,2013-02-02 14:49:00,
2013-02-02 06:51:00,41.1,39.8,30.28,North,359,1.0,3.0,95,0.00,,,0.00,Wunderground v.1.15,2013-02-02 14:51:00,
2013-02-02 06:54:00,41.3,40.2,30.28,North,359,1.0,3.0,96,0.00,,,0.00,Wunderground v.1.15,2013-02-02 14:54:00,
2013-02-02 06:56:00,41.3,40.0,30.28,North,359,0.0,3.0,95,0.00,,,0.00,Wunderground v.1.15,2013-02-02 14:56:00,
2013-02-02 06:59:00,41.3,40.0,30.28,NNW,331,0.0,3.0,95,0.00,,,0.00,Wunderground v.1.15,2013-02-02 14:59:00,
2013-02-02 07:04:00,41.2,39.9,30.29,NNW,331,0.0,3.0,95,0.00,,,0.00,Wunderground v.1.15,2013-02-02 15:04:00,
2013-02-02 07:05:00,41.1,39.8,30.29,NNW,331,0.0,3.0,95,0.00,,,0.00,Wunderground v.1.15,2013-02-02 15:05:00,
2013-02-02 07:07:00,40.9,39.6,30.29,NNW,331,1.0,3.0,95,0.00,,,0.00,Wunderground v.1.15,2013-02-02 15:07:00,
2013-02-02 07:11:00,40.9,39.6,30.29,North,359,1.0,3.0,95,0.00,,,0.00,Wunderground v.1.15,2013-02-02 15:11:00,
2013-02-02 07:12:00,41.0,39.7,30.29,NNW,331,2.0,3.0,95,0.00,,,0.00,Wunderground v.1.15,2013-02-02 15:12:00,
2013-02-02 07:15:00,41.1,40.0,30.30,North,359,2.0,4.0,96,0.00,,,0.00,Wunderground v.1.15,2013-02-02 15:15:00,
2013-02-02 07:16:00,41.1,40.0,30.30,North,359,2.0,4.0,96,0.00,,,0.00,Wunderground v.1.15,2013-02-02 15:16:00,
2013-02-02 07:21:00,41.0,39.7,30.29,NNW,331,3.0,4.0,95,0.00,,,0.00,Wunderground v.1.15,2013-02-02 15:21:00,
2013-02-02 07:22:00,41.0,39.7,30.29,North,359,3.0,4.0,95,0.00,,,0.00,Wunderground v.1.15,2013-02-02 15:22:00,
2013-02-02 07:28:00,40.9,39.6,30.30,NNW,331,2.0,4.0,95,0.00,,,0.00,Wunderground v.1.15,2013-02-02 15:28:00,
2013-02-02 07:29:00,40.9,39.6,30.30,North,359,2.0,4.0,95,0.00,,,0.00,Wunderground v.1.15,2013-02-02 15:29:00,
2013-02-02 07:34:00,41.1,40.0,30.30,North,359,1.0,3.0,96,0.00,,,0.00,Wunderground v.1.15,2013-02-02 15:34:00,
2013-02-02 07:35:00,41.2,40.1,30.30,NNW,331,1.0,3.0,96,0.00,,,0.00,Wunderground v.1.15,2013-02-02 15:35:00,
2013-02-02 07:39:00,41.6,40.5,30.30,NNW,331,1.0,3.0,96,0.00,,,0.00,Wunderground v.1.15,2013-02-02 15:39:00,
2013-02-02 07:40:00,41.7,40.6,30.30,NNW,331,1.0,1.0,96,0.00,,,0.00,Wunderground v.1.15,2013-02-02 15:40:00,
2013-02-02 07:42:00,41.6,40.3,30.30,NNW,331,1.0,3.0,95,0.00,,,0.00,Wunderground v.1.15,2013-02-02 15:42:00,
2013-02-02 07:46:00,41.0,39.4,30.30,NNW,331,1.0,3.0,94,0.00,,,0.00,Wunderground v.1.15,2013-02-02 15:46:00,
2013-02-02 07:49:00,40.7,39.4,30.30,NNW,331,2.0,4.0,95,0.00,,,0.00,Wunderground v.1.15,2013-02-02 15:49:00,
2013-02-02 07:53:00,40.6,39.3,30.30,NNW,331,3.0,3.0,95,0.00,,,0.00,Wunderground v.1.15,2013-02-02 15:53:00,
2013-02-02 07:55:00,40.7,39.6,30.30,NNW,331,3.0,3.0,96,0.00,,,0.00,Wunderground v.1.15,2013-02-02 15:55:00,
2013-02-02 07:56:00,40.8,39.7,30.30,NNW,331,2.0,3.0,96,0.00,,,0.00,Wunderground v.1.15,2013-02-02 15:56:00,
2013-02-02 08:01:00,40.9,39.8,30.30,NNW,331,1.0,3.0,96,0.00,,,0.00,Wunderground v.1.15,2013-02-02 16:01:00,
2013-02-02 08:03:00,40.9,39.8,30.30,NNW,331,0.0,3.0,96,0.00,,,0.00,Wunderground v.1.15,2013-02-02 16:03:00,
2013-02-02 08:07:00,40.9,39.6,30.31,North,359,0.0,3.0,95,0.00,,,0.00,Wunderground v.1.15,2013-02-02 16:07:00,
2013-02-02 08:08:00,40.9,39.6,30.31,NNW,331,0.0,3.0,95,0.00,,,0.00,Wunderground v.1.15,2013-02-02 16:08:00,
2013-02-02 08:10:00,41.0,39.7,30.31,NNW,331,0.0,3.0,95,0.00,,,0.00,Wunderground v.1.15,2013-02-02 16:10:00,
2013-02-02 08:13:00,41.1,40.0,30.31,NNW,331,0.0,3.0,96,0.00,,,0.00,Wunderground v.1.15,2013-02-02 16:13:00,
2013-02-02 08:17:00,41.1,40.0,30.31,NNW,331,0.0,3.0,96,0.00,,,0.00,Wunderground v.1.15,2013-02-02 16:17:00,
2013-02-02 08:20:00,41.2,40.1,30.31,NNW,331,0.0,3.0,96,0.00,,,0.00,Wunderground v.1.15,2013-02-02 16:20:00,
2013-02-02 08:21:00,41.3,40.2,30.31,North,359,0.0,3.0,96,0.00,,,0.00,Wunderground v.1.15,2013-02-02 16:21:00,
2013-02-02 08:25:00,41.5,40.4,30.31,NNW,331,0.0,3.0,96,0.00,,,0.00,Wunderground v.1.15,2013-02-02 16:25:00,
2013-02-02 08:26:00,41.5,40.4,30.31,NNW,331,0.0,3.0,96,0.00,,,0.00,Wunderground v.1.15,2013-02-02 16:26:00,
2013-02-02 08:27:00,41.6,40.5,30.31,NNW,331,0.0,3.0,96,0.00,,,0.00,Wunderground v.1.15,2013-02-02 16:27:00,
2013-02-02 08:32:00,41.8,40.7,30.31,NNW,331,1.0,3.0,96,0.00,,,0.00,Wunderground v.1.15,2013-02-02 16:32:00,
2013-02-02 08:36:00,41.8,40.5,30.31,NNW,331,1.0,3.0,95,0.00,,,0.00,Wunderground v.1.15,2013-02-02 16:36:00,
2013-02-02 08:40:00,41.9,40.6,30.31,NNW,331,1.0,1.0,95,0.00,,,0.00,Wunderground v.1.15,2013-02-02 16:40:00,
2013-02-02 08:43:00,42.0,40.7,30.31,NNW,331,1.0,3.0,95,0.00,,,0.00,Wunderground v.1.15,2013-02-02 16:43:00,
2013-02-02 08:45:00,42.1,40.8,30.32,NNW,331,0.0,3.0,95,0.00,,,0.00,Wunderground v.1.15,2013-02-02 16:45:00,
2013-02-02 08:50:00,42.3,41.0,30.32,NNW,331,0.0,3.0,95,0.00,,,0.00,Wunderground v.1.15,2013-02-02 16:50:00,
2013-02-02 08:55:00,42.5,41.2,30.32,NNW,331,1.0,3.0,95,0.00,,,0.00,Wunderground v.1.15,2013-02-02 16:55:00,
2013-02-02 08:57:00,42.7,41.4,30.32,NNW,331,1.0,3.0,95,0.00,,,0.00,Wunderground v.1.15,2013-02-02 16:57:00,
2013-02-02 09:02:00,43.3,42.2,30.32,NNW,329,2.0,3.0,96,0.00,,,0.00,Wunderground v.1.15,2013-02-02 17:02:00,
2013-02-02 09:03:00,43.4,42.3,30.32,NNW,329,2.0,3.0,96,0.00,,,0.00,Wunderground v.1.15,2013-02-02 17:03:00,
2013-02-02 09:07:00,44.0,42.9,30.33,NW,323,2.0,3.0,96,0.00,,,0.00,Wunderground v.1.15,2013-02-02 17:07:00,
2013-02-02 09:08:00,44.2,43.1,30.33,NW,316,2.0,3.0,96,0.00,,,0.00,Wunderground v.1.15,2013-02-02 17:08:00,
2013-02-02 09:14:00,45.2,44.1,30.33,WNW,301,2.0,4.0,96,0.00,,,0.00,Wunderground v.1.15,2013-02-02 17:14:00,
2013-02-02 09:20:00,46.1,45.0,30.33,WNW,295,3.0,3.0,96,0.00,,,0.00,Wunderground v.1.15,2013-02-02 17:20:00,
2013-02-02 09:21:00,46.2,45.1,30.33,WNW,295,3.0,3.0,96,0.00,,,0.00,Wunderground v.1.15,2013-02-02 17:21:00,
2013-02-02 09:27:00,46.6,45.5,30.33,WNW,295,2.0,3.0,96,0.00,,,0.00,Wunderground v.1.15,2013-02-02 17:27:00,
2013-02-02 09:28:00,46.6,45.5,30.33,WNW,295,2.0,3.0,96,0.00,,,0.00,Wunderground v.1.15,2013-02-02 17:28:00,
2013-02-02 09:31:00,46.7,45.6,30.33,WNW,295,1.0,3.0,96,0.00,,,0.00,Wunderground v.1.15,2013-02-02 17:31:00,
2013-02-02 09:32:00,46.6,45.5,30.33,WNW,295,2.0,3.0,96,0.00,,,0.00,Wunderground v.1.15,2013-02-02 17:32:00,
2013-02-02 09:35:00,46.6,45.5,30.33,WNW,295,2.0,3.0,96,0.00,,,0.00,Wunderground v.1.15,2013-02-02 17:35:00,
2013-02-02 09:36:00,46.6,45.5,30.33,WNW,295,2.0,3.0,96,0.00,,,0.00,Wunderground v.1.15,2013-02-02 17:36:00,
2013-02-02 09:39:00,46.7,45.3,30.33,WNW,295,2.0,3.0,95,0.00,,,0.00,Wunderground v.1.15,2013-02-02 17:39:00,
2013-02-02 09:44:00,46.8,45.4,30.33,WNW,295,1.0,3.0,95,0.00,,,0.00,Wunderground v.1.15,2013-02-02 17:44:00,
2013-02-02 09:45:00,46.8,45.4,30.33,WNW,295,1.0,3.0,95,0.00,,,0.00,Wunderground v.1.15,2013-02-02 17:45:00,
2013-02-02 09:51:00,46.9,45.5,30.33,WNW,295,2.0,5.0,95,0.00,,,0.00,Wunderground v.1.15,2013-02-02 17:51:00,
2013-02-02 09:52:00,46.9,45.5,30.33,WNW,295,2.0,5.0,95,0.00,,,0.00,Wunderground v.1.15,2013-02-02 17:52:00,
2013-02-02 09:57:00,47.1,45.7,30.32,WNW,295,1.0,5.0,95,0.00,,,0.00,Wunderground v.1.15,2013-02-02 17:57:00,
2013-02-02 10:00:00,47.2,45.6,30.32,WNW,295,1.0,3.0,94,0.00,,,0.00,Wunderground v.1.15,2013-02-02 18:00:00,
2013-02-02 10:02:00,47.4,45.8,30.32,WNW,295,0.0,3.0,94,0.00,,,0.00,Wunderground v.1.15,2013-02-02 18:02:00,
2013-02-02 10:08:00,47.7,46.1,30.32,WNW,295,0.0,3.0,94,0.00,,,0.00,Wunderground v.1.15,2013-02-02 18:08:00,
2013-02-02 10:11:00,48.0,46.1,30.32,WNW,296,0.0,3.0,93,0.00,,,0.00,Wunderground v.1.15,2013-02-02 18:11:00,
2013-02-02 10:12:00,48.1,46.2,30.32,WNW,295,0.0,3.0,93,0.00,,,0.00,Wunderground v.1.15,2013-02-02 18:12:00,
2013-02-02 10:14:00,48.3,46.1,30.32,WNW,295,1.0,3.0,92,0.00,,,0.00,Wunderground v.1.15,2013-02-02 18:14:00,
2013-02-02 10:17:00,48.6,46.1,30.32,WNW,295,1.0,3.0,91,0.00,,,0.00,Wunderground v.1.15,2013-02-02 18:17:00,
2013-02-02 10:19:00,48.8,46.3,30.32,WNW,296,1.0,4.0,91,0.00,,,0.00,Wunderground v.1.15,2013-02-02 18:19:00,
2013-02-02 10:20:00,48.9,46.1,30.32,WNW,295,2.0,3.0,90,0.00,,,0.00,Wunderground v.1.15,2013-02-02 18:20:00,
2013-02-02 10:24:00,49.1,46.0,30.32,WNW,295,2.0,3.0,89,0.00,,,0.00,Wunderground v.1.15,2013-02-02 18:24:00,
2013-02-02 10:28:00,49.5,46.4,30.32,WNW,295,1.0,3.0,89,0.00,,,0.00,Wunderground v.1.15,2013-02-02 18:28:00,
2013-02-02 10:33:00,50.3,47.2,30.32,WNW,296,1.0,3.0,89,0.00,,,0.00,Wunderground v.1.15,2013-02-02 18:33:00,
2013-02-02 10:35:00,50.6,47.2,30.32,WNW,296,0.0,3.0,88,0.00,,,0.00,Wunderground v.1.15,2013-02-02 18:35:00,
2013-02-02 10:39:00,51.2,47.5,30.32,WNW,296,1.0,3.0,87,0.00,,,0.00,Wunderground v.1.15,2013-02-02 18:39:00,
2013-02-02 10:41:00,51.5,47.8,30.32,WNW,296,0.0,3.0,87,0.00,,,0.00,Wunderground v.1.15,2013-02-02 18:41:00,
2013-02-02 10:42:00,51.6,47.5,30.32,WNW,294,1.0,4.0,86,0.00,,,0.00,Wunderground v.1.15,2013-02-02 18:42:00,
2013-02-02 10:43:00,51.7,47.3,30.32,WNW,293,1.0,4.0,85,0.00,,,0.00,Wunderground v.1.15,2013-02-02 18:43:00,
2013-02-02 10:49:00,52.3,47.6,30.32,WNW,293,2.0,4.0,84,0.00,,,0.00,Wunderground v.1.15,2013-02-02 18:49:00,
2013-02-02 10:50:00,52.5,47.8,30.32,WNW,293,2.0,4.0,84,0.00,,,0.00,Wunderground v.1.15,2013-02-02 18:50:00,
2013-02-02 10:55:00,52.6,47.6,30.32,WNW,291,2.0,5.0,83,0.00,,,0.00,Wunderground v.1.15,2013-02-02 18:55:00,
2013-02-02 10:57:00,52.5,47.5,30.32,WNW,291,2.0,5.0,83,0.00,,,0.00,Wunderground v.1.15,2013-02-02 18:57:00,
2013-02-02 10:59:00,52.6,48.2,30.32,WNW,291,2.0,5.0,85,0.00,,,0.00,Wunderground v.1.15,2013-02-02 18:59:00,
2013-02-02 11:01:00,52.6,48.2,30.32,WNW,288,3.0,4.0,85,0.00,,,0.00,Wunderground v.1.15,2013-02-02 19:01:00,
2013-02-02 11:03:00,52.8,48.7,30.32,West,273,3.0,6.0,86,0.00,,,0.00,Wunderground v.1.15,2013-02-02 19:03:00,
2013-02-02 11:07:00,52.5,48.4,30.32,West,270,4.0,6.0,86,0.00,,,0.00,Wunderground v.1.15,2013-02-02 19:07:00,
2013-02-02 11:08:00,52.6,48.8,30.32,West,270,4.0,6.0,87,0.00,,,0.00,Wunderground v.1.15,2013-02-02 19:08:00,
2013-02-02 11:09:00,52.7,48.9,30.32,West,268,5.0,6.0,87,0.00,,,0.00,Wunderground v.1.15,2013-02-02 19:09:00,
2013-02-02 11:14:00,52.4,48.6,30.32,WSW,246,6.0,8.0,87,0.00,,,0.00,Wunderground v.1.15,2013-02-02 19:14:00,
2013-02-02 11:16:00,52.2,48.4,30.32,WSW,239,7.0,9.0,87,0.00,,,0.00,Wunderground v.1.15,2013-02-02 19:16:00,
2013-02-02 11:22:00,52.3,48.9,30.32,WSW,255,8.0,8.0,88,0.00,,,0.00,Wunderground v.1.15,2013-02-02 19:22:00,
2013-02-02 11:23:00,52.3,48.5,30.32,WSW,258,8.0,8.0,87,0.00,,,0.00,Wunderground v.1.15,2013-02-02 19:23:00,
2013-02-02 11:26:00,52.5,48.7,30.32,WSW,240,7.0,8.0,87,0.00,,,0.00,Wunderground v.1.15,2013-02-02 19:26:00,
2013-02-02 11:27:00,52.4,48.6,30.32,SW,227,6.0,9.0,87,0.00,,,0.00,Wunderground v.1.15,2013-02-02 19:27:00,
2013-02-02 11:28:00,52.2,48.1,30.32,SW,233,7.0,9.0,86,0.00,,,0.00,Wunderground v.1.15,2013-02-02 19:28:00,
2013-02-02 11:29:00,52.2,48.4,30.32,SW,234,7.0,9.0,87,0.00,,,0.00,Wunderground v.1.15,2013-02-02 19:29:00,
2013-02-02 11:35:00,52.6,48.8,30.31,West,260,7.0,9.0,87,0.00,,,0.00,Wunderground v.1.15,2013-02-02 19:35:00,
2013-02-02 11:36:00,52.6,48.8,30.31,West,262,7.0,9.0,87,0.00,,,0.00,Wunderground v.1.15,2013-02-02 19:36:00,
2013-02-02 11:38:00,52.7,48.3,30.31,SW,235,7.0,9.0,85,0.00,,,0.00,Wunderground v.1.15,2013-02-02 19:38:00,
2013-02-02 11:39:00,52.5,48.1,30.31,WSW,242,7.0,9.0,85,0.00,,,0.00,Wunderground v.1.15,2013-02-02 19:39:00,
2013-02-02 11:43:00,52.6,48.5,30.31,West,264,6.0,7.0,86,0.00,,,0.00,Wunderground v.1.15,2013-02-02 19:43:00,
2013-02-02 11:44:00,52.6,48.2,30.31,WSW,258,6.0,7.0,85,0.00,,,0.00,Wunderground v.1.15,2013-02-02 19:44:00,
2013-02-02 11:46:00,52.8,48.4,30.31,WSW,254,6.0,8.0,85,0.00,,,0.00,Wunderground v.1.15,2013-02-02 19:46:00,
2013-02-02 11:49:00,52.9,48.2,30.31,West,273,5.0,8.0,84,0.00,,,0.00,Wunderground v.1.15,2013-02-02 19:49:00,
2013-02-02 11:50:00,53.0,48.3,30.31,West,263,5.0,5.0,84,0.00,,,0.00,Wunderground v.1.15,2013-02-02 19:50:00,
2013-02-02 11:51:00,53.0,48.3,30.31,West,262,5.0,5.0,84,0.00,,,0.00,Wunderground v.1.15,2013-02-02 19:51:00,
2013-02-02 11:56:00,53.5,48.8,30.30,West,260,5.0,5.0,84,0.00,,,0.00,Wunderground v.1.15,2013-02-02 19:56:00,
2013-02-02 11:57:00,53.6,48.6,30.30,West,260,5.0,5.0,83,0.00,,,0.00,Wunderground v.1.15,2013-02-02 19:57:00,
2013-02-02 11:58:00,53.7,48.7,30.30,West,260,4.0,5.0,83,0.00,,,0.00,Wunderground v.1.15,2013-02-02 19:58:00,
2013-02-02 12:02:00,53.8,48.4,30.30,WSW,252,4.0,5.0,82,0.00,,,0.00,Wunderground v.1.15,2013-02-02 20:02:00,
2013-02-02 12:03:00,53.9,48.5,30.30,WSW,253,4.0,5.0,82,0.00,,,0.00,Wunderground v.1.15,2013-02-02 20:03:00,
2013-02-02 12:06:00,54.0,48.3,30.30,WSW,253,3.0,5.0,81,0.00,,,0.00,Wunderground v.1.15,2013-02-02 20:06:00,
2013-02-02 12:08:00,54.2,48.8,30.30,WSW,253,2.0,5.0,82,0.00,,,0.00,Wunderground v.1.15,2013-02-02 20:08:00,
2013-02-02 12:12:00,54.8,48.7,30.29,WSW,253,2.0,3.0,80,0.00,,,0.00,Wunderground v.1.15,2013-02-02 20:12:00,
2013-02-02 12:13:00,54.8,48.7,30.29,WSW,239,1.0,3.0,80,0.00,,,0.00,Wunderground v.1.15,2013-02-02 20:13:00,
2013-02-02 12:16:00,55.0,48.9,30.29,WSW,239,2.0,4.0,80,0.00,,,0.00,Wunderground v.1.15,2013-02-02 20:16:00,
2013-02-02 12:17:00,55.1,48.7,30.29,WSW,239,2.0,4.0,79,0.00,,,0.00,Wunderground v.1.15,2013-02-02 20:17:00,
2013-02-02 12:18:00,55.1,48.7,30.29,WSW,239,2.0,4.0,79,0.00,,,0.00,Wunderground v.1.15,2013-02-02 20:18:00,
2013-02-02 12:24:00,55.3,48.9,30.29,WSW,239,2.0,3.0,79,0.00,,,0.00,Wunderground v.1.15,2013-02-02 20:24:00,
2013-02-02 12:26:00,55.5,49.1,30.29,WSW,239,2.0,3.0,79,0.00,,,0.00,Wunderground v.1.15,2013-02-02 20:26:00,
2013-02-02 12:28:00,55.7,49.3,30.29,WSW,239,2.0,3.0,79,0.00,,,0.00,Wunderground v.1.15,2013-02-02 20:28:00,
2013-02-02 12:29:00,55.7,48.9,30.29,WSW,239,1.0,3.0,78,0.00,,,0.00,Wunderground v.1.15,2013-02-02 20:29:00,
2013-02-02 12:32:00,56.1,49.3,30.28,WSW,239,1.0,3.0,78,0.00,,,0.00,Wunderground v.1.15,2013-02-02 20:32:00,
2013-02-02 12:37:00,56.9,49.4,30.28,WSW,239,1.0,3.0,76,0.00,,,0.00,Wunderground v.1.15,2013-02-02 20:37:00,
2013-02-02 12:40:00,57.0,49.5,30.28,WSW,237,1.0,5.0,76,0.00,,,0.00,Wunderground v.1.15,2013-02-02 20:40:00,
2013-02-02 12:43:00,57.0,49.5,30.28,SW,224,2.0,6.0,76,0.00,,,0.00,Wunderground v.1.15,2013-02-02 20:43:00,
2013-02-02 12:48:00,57.1,49.6,30.27,SW,224,2.0,6.0,76,0.00,,,0.00,Wunderground v.1.15,2013-02-02 20:48:00,
2013-02-02 12:51:00,57.4,49.9,30.27,SW,224,2.0,3.0,76,0.00,,,0.00,Wunderground v.1.15,2013-02-02 20:51:00,
2013-02-02 12:52:00,57.5,50.0,30.27,SW,224,2.0,5.0,76,0.00,,,0.00,Wunderground v.1.15,2013-02-02 20:52:00,
2013-02-02 12:54:00,57.4,49.5,30.27,SW,224,2.0,5.0,75,0.00,,,0.00,Wunderground v.1.15,2013-02-02 20:54:00,
2013-02-02 12:59:00,57.5,49.6,30.27,SW,224,2.0,5.0,75,0.00,,,0.00,Wunderground v.1.15,2013-02-02 20:59:00,
2013-02-02 13:02:00,57.8,49.9,30.27,SW,222,2.0,5.0,75,0.00,,,0.00,Wunderground v.1.15,2013-02-02 21:02:00,
2013-02-02 13:05:00,58.0,49.8,30.27,SSW,206,3.0,5.0,74,0.00,,,0.00,Wunderground v.1.15,2013-02-02 21:05:00,
2013-02-02 13:06:00,58.0,49.8,30.27,SSW,206,3.0,5.0,74,0.00,,,0.00,Wunderground v.1.15,2013-02-02 21:06:00,
2013-02-02 13:11:00,58.3,50.4,30.26,SW,228,3.0,8.0,75,0.00,,,0.00,Wunderground v.1.15,2013-02-02 21:11:00,
2013-02-02 13:13:00,58.2,50.3,30.26,WSW,241,4.0,8.0,75,0.00,,,0.00,Wunderground v.1.15,2013-02-02 21:13:00,
2013-02-02 13:16:00,58.0,50.1,30.26,WSW,247,4.0,8.0,75,0.00,,,0.00,Wunderground v.1.15,2013-02-02 21:16:00,
2013-02-02 13:21:00,58.1,50.6,30.26,West,261,4.0,6.0,76,0.00,,,0.00,Wunderground v.1.15,2013-02-02 21:21:00,
2013-02-02 13:22:00,58.1,50.6,30.26,West,272,4.0,6.0,76,0.00,,,0.00,Wunderground v.1.15,2013-02-02 21:22:00,
2013-02-02 13:27:00,58.3,50.4,30.26,SW,221,4.0,8.0,75,0.00,,,0.00,Wunderground v.1.15,2013-02-02 21:27:00,
2013-02-02 13:29:00,58.2,51.0,30.26,SW,222,4.0,8.0,77,0.00,,,0.00,Wunderground v.1.15,2013-02-02 21:29:00,
2013-02-02 13:30:00,58.2,50.7,30.26,SW,235,5.0,5.0,76,0.00,,,0.00,Wunderground v.1.15,2013-02-02 21:30:00,
2013-02-02 13:32:00,58.3,51.1,30.26,WSW,240,5.0,6.0,77,0.00,,,0.00,Wunderground v.1.15,2013-02-02 21:32:00,
2013-02-02 13:35:00,58.3,50.8,30.25,West,281,5.0,6.0,76,0.00,,,0.00,Wunderground v.1.15,2013-02-02 21:35:00,
2013-02-02 13:38:00,58.4,50.5,30.25,WSW,244,5.0,6.0,75,0.00,,,0.00,Wunderground v.1.15,2013-02-02 21:38:00,
2013-02-02 13:39:00,58.3,50.4,30.25,WSW,244,5.0,6.0,75,0.00,,,0.00,Wunderground v.1.15,2013-02-02 21:39:00,
2013-02-02 13:41:00,58.3,50.8,30.25,WSW,239,5.0,5.0,76,0.00,,,0.00,Wunderground v.1.15,2013-02-02 21:41:00,
2013-02-02 13:45:00,58.4,50.5,30.25,West,268,5.0,6.0,75,0.00,,,0.00,Wunderground v.1.15,2013-02-02 21:45:00,
2013-02-02 13:46:00,58.4,50.5,30.25,WSW,241,5.0,6.0,75,0.00,,,0.00,Wunderground v.1.15,2013-02-02 21:46:00,
2013-02-02 13:47:00,58.4,50.5,30.25,WSW,242,5.0,6.0,75,0.00,,,0.00,Wunderground v.1.15,2013-02-02 21:47:00,
2013-02-02 13:52:00,58.4,50.1,30.25,WSW,254,5.0,5.0,74,0.00,,,0.00,Wunderground v.1.15,2013-02-02 21:52:00,
2013-02-02 13:53:00,58.3,50.4,30.25,WSW,254,5.0,6.0,75,0.00,,,0.00,Wunderground v.1.15,2013-02-02 21:53:00,
2013-02-02 13:54:00,58.3,50.4,30.25,WSW,253,5.0,6.0,75,0.00,,,0.00,Wunderground v.1.15,2013-02-02 21:54:00,
2013-02-02 13:59:00,58.1,50.2,30.25,West,268,5.0,7.0,75,0.00,,,0.00,Wunderground v.1.15,2013-02-02 21:59:00,
2013-02-02 14:02:00,58.2,50.0,30.24,WSW,248,5.0,8.0,74,0.00,,,0.00,Wunderground v.1.15,2013-02-02 22:02:00,
2013-02-02 14:03:00,58.2,50.3,30.24,WSW,258,5.0,8.0,75,0.00,,,0.00,Wunderground v.1.15,2013-02-02 22:03:00,
2013-02-02 14:05:00,58.2,50.0,30.24,WSW,246,5.0,8.0,74,0.00,,,0.00,Wunderground v.1.15,2013-02-02 22:05:00,
2013-02-02 14:07:00,58.2,50.0,30.24,WSW,252,6.0,9.0,74,0.00,,,0.00,Wunderground v.1.15,2013-02-02 22:07:00,
2013-02-02 14:08:00,58.2,50.0,30.24,WSW,251,6.0,9.0,74,0.00,,,0.00,Wunderground v.1.15,2013-02-02 22:08:00,
2013-02-02 14:10:00,58.3,50.0,30.24,West,260,6.0,8.0,74,0.00,,,0.00,Wunderground v.1.15,2013-02-02 22:10:00,
2013-02-02 14:12:00,58.5,49.9,30.24,WSW,242,6.0,8.0,73,0.00,,,0.00,Wunderground v.1.15,2013-02-02 22:12:00,
2013-02-02 14:14:00,58.5,49.9,30.24,West,265,6.0,8.0,73,0.00,,,0.00,Wunderground v.1.15,2013-02-02 22:14:00,
2013-02-02 14:17:00,58.8,50.5,30.24,West,262,6.0,8.0,74,0.00,,,0.00,Wunderground v.1.15,2013-02-02 22:17:00,
2013-02-02 14:18:00,58.9,50.6,30.24,SW,231,5.0,8.0,74,0.00,,,0.00,Wunderground v.1.15,2013-02-02 22:18:00,
2013-02-02 14:22:00,59.1,50.1,30.24,WSW,237,5.0,8.0,72,0.00,,,0.00,Wunderground v.1.15,2013-02-02 22:22:00,
2013-02-02 14:26:00,59.4,50.4,30.24,SSW,206,5.0,9.0,72,0.00,,,0.00,Wunderground v.1.15,2013-02-02 22:26:00,
2013-02-02 14:27:00,59.5,50.5,30.24,SSW,207,5.0,10.0,72,0.00,,,0.00,Wunderground v.1.15,2013-02-02 22:27:00,
2013-02-02 14:32:00,60.1,50.7,30.24,WSW,244,6.0,7.0,71,0.00,,,0.00,Wunderground v.1.15,2013-02-02 22:32:00,
2013-02-02 14:34:00,60.1,50.7,30.24,WSW,237,7.0,7.0,71,0.00,,,0.00,Wunderground v.1.15,2013-02-02 22:34:00,
2013-02-02 14:38:00,60.3,50.5,30.24,SW,234,6.0,8.0,70,0.00,,,0.00,Wunderground v.1.15,2013-02-02 22:38:00,
2013-02-02 14:39:00,60.2,50.4,30.24,WSW,252,6.0,8.0,70,0.00,,,0.00,Wunderground v.1.15,2013-02-02 22:39:00,
2013-02-02 14:41:00,60.0,50.6,30.24,WSW,244,6.0,8.0,71,0.00,,,0.00,Wunderground v.1.15,2013-02-02 22:41:00,
2013-02-02 14:43:00,59.8,50.4,30.25,WSW,242,6.0,9.0,71,0.00,,,0.00,Wunderground v.1.15,2013-02-02 22:43:00,
2013-02-02 14:44:00,59.6,49.8,30.25,WSW,247,6.0,9.0,70,0.00,,,0.00,Wunderground v.1.15,2013-02-02 22:44:00,
2013-02-02 14:46:00,59.6,50.2,30.25,West,269,6.0,9.0,71,0.00,,,0.00,Wunderground v.1.15,2013-02-02 22:46:00,
2013-02-02 14:47:00,59.7,50.3,30.25,West,264,6.0,9.0,71,0.00,,,0.00,Wunderground v.1.15,2013-02-02 22:47:00,
2013-02-02 14:52:00,59.9,50.5,30.25,WSW,257,6.0,6.0,71,0.00,,,0.00,Wunderground v.1.15,2013-02-02 22:52:00,
2013-02-02 14:53:00,59.9,50.1,30.25,WSW,245,6.0,6.0,70,0.00,,,0.00,Wunderground v.1.15,2013-02-02 22:53:00,
2013-02-02 14:54:00,59.9,50.1,30.25,WSW,242,5.0,6.0,70,0.00,,,0.00,Wunderground v.1.15,2013-02-02 22:54:00,
2013-02-02 14:57:00,60.0,50.2,30.25,West,263,5.0,6.0,70,0.00,,,0.00,Wunderground v.1.15,2013-02-02 22:57:00,
2013-02-02 14:58:00,60.0,49.8,30.25,West,262,5.0,6.0,69,0.00,,,0.00,Wunderground v.1.15,2013-02-02 22:58:00,
2013-02-02 15:01:00,60.0,50.2,30.25,West,261,4.0,5.0,70,0.00,,,0.00,Wunderground v.1.15,2013-02-02 23:01:00,
2013-02-02 15:04:00,60.0,50.2,30.25,West,261,3.0,5.0,70,0.00,,,0.00,Wunderground v.1.15,2013-02-02 23:04:00,
2013-02-02 15:06:00,60.0,50.6,30.25,West,261,3.0,5.0,71,0.00,,,0.00,Wunderground v.1.15,2013-02-02 23:06:00,
2013-02-02 15:07:00,59.9,50.5,30.24,West,261,3.0,5.0,71,0.00,,,0.00,Wunderground v.1.15,2013-02-02 23:07:00,
2013-02-02 15:11:00,60.2,50.4,30.24,West,261,2.0,3.0,70,0.00,,,0.00,Wunderground v.1.15,2013-02-02 23:11:00,
2013-02-02 15:12:00,60.3,50.5,30.24,West,261,3.0,3.0,70,0.00,,,0.00,Wunderground v.1.15,2013-02-02 23:12:00,
2013-02-02 15:13:00,60.3,50.5,30.24,West,261,3.0,3.0,70,0.00,,,0.00,Wunderground v.1.15,2013-02-02 23:13:00,
2013-02-02 15:14:00,60.4,50.6,30.24,West,261,3.0,3.0,70,0.00,,,0.00,Wunderground v.1.15,2013-02-02 23:14:00,
2013-02-02 15:17:00,60.5,50.7,30.24,West,261,2.0,4.0,70,0.00,,,0.00,Wunderground v.1.15,2013-02-02 23:17:00,
2013-02-02 15:19:00,60.4,50.6,30.24,West,261,3.0,4.0,70,0.00,,,0.00,Wunderground v.1.15,2013-02-02 23:19:00,
2013-02-02 15:22:00,60.5,51.0,30.24,West,261,3.0,4.0,71,0.00,,,0.00,Wunderground v.1.15,2013-02-02 23:22:00,
2013-02-02 15:24:00,60.5,50.7,30.24,West,261,3.0,4.0,70,0.00,,,0.00,Wunderground v.1.15,2013-02-02 23:24:00,
2013-02-02 15:28:00,60.7,50.9,30.24,West,261,2.0,4.0,70,0.00,,,0.00,Wunderground v.1.15,2013-02-02 23:28:00,
2013-02-02 15:32:00,61.0,51.1,30.24,West,261,2.0,4.0,70,0.00,,,0.00,Wunderground v.1.15,2013-02-02 23:32:00,
2013-02-02 15:33:00,61.0,51.1,30.24,West,261,2.0,4.0,70,0.00,,,0.00,Wunderground v.1.15,2013-02-02 23:33:00,
2013-02-02 15:34:00,60.9,50.7,30.24,West,261,2.0,4.0,69,0.00,,,0.00,Wunderground v.1.15,2013-02-02 23:34:00,
2013-02-02 15:36:00,60.9,50.7,30.23,West,261,2.0,4.0,69,0.00,,,0.00,Wunderground v.1.15,2013-02-02 23:36:00,
2013-02-02 15:40:00,61.3,51.0,30.23,West,261,2.0,2.0,69,0.00,,,0.00,Wunderground v.1.15,2013-02-02 23:40:00,
2013-02-02 15:41:00,61.4,51.1,30.23,West,261,2.0,3.0,69,0.00,,,0.00,Wunderground v.1.15,2013-02-02 23:41:00,
2013-02-02 15:47:00,61.8,50.7,30.23,West,261,1.0,3.0,67,0.00,,,0.00,Wunderground v.1.15,2013-02-02 23:47:00,
2013-02-02 15:51:00,61.7,51.0,30.23,West,261,1.0,3.0,68,0.00,,,0.00,Wunderground v.1.15,2013-02-02 23:51:00,
2013-02-02 15:53:00,61.8,51.1,30.23,West,261,1.0,3.0,68,0.00,,,0.00,Wunderground v.1.15,2013-02-02 23:53:00,
2013-02-02 15:58:00,61.7,51.0,30.23,West,261,1.0,3.0,68,0.00,,,0.00,Wunderground v.1.15,2013-02-02 23:58:00,
2013-02-02 15:59:00,61.7,51.0,30.23,West,261,1.0,3.0,68,0.00,,,0.00,Wunderground v.1.15,2013-02-02 23:59:00,
2013-02-02 16:00:00,61.7,51.0,30.23,West,262,1.0,3.0,68,0.00,,,0.00,Wunderground v.1.15,2013-02-03 00:00:00,
2013-02-02 16:05:00,61.6,50.9,30.23,West,261,1.0,3.0,68,0.00,,,0.00,Wunderground v.1.15,2013-02-03 00:05:00,
2013-02-02 16:07:00,61.7,51.0,30.23,West,261,1.0,3.0,68,0.00,,,0.00,Wunderground v.1.15,2013-02-03 00:07:00,
2013-02-02 16:13:00,61.5,51.2,30.23,West,261,2.0,6.0,69,0.00,,,0.00,Wunderground v.1.15,2013-02-03 00:13:00,
2013-02-02 16:19:00,60.9,50.7,30.23,WSW,241,4.0,6.0,69,0.00,,,0.00,Wunderground v.1.15,2013-02-03 00:19:00,
2013-02-02 16:21:00,60.9,51.0,30.23,WSW,241,4.0,4.0,70,0.00,,,0.00,Wunderground v.1.15,2013-02-03 00:21:00,
2013-02-02 16:26:00,60.7,52.0,30.23,WSW,242,4.0,8.0,73,0.00,,,0.00,Wunderground v.1.15,2013-02-03 00:26:00,
2013-02-02 16:27:00,60.4,51.7,30.23,WSW,237,4.0,8.0,73,0.00,,,0.00,Wunderground v.1.15,2013-02-03 00:27:00,
2013-02-02 16:33:00,59.8,51.9,30.23,WSW,258,6.0,7.0,75,0.00,,,0.00,Wunderground v.1.15,2013-02-03 00:33:00,
2013-02-02 16:34:00,59.8,51.5,30.23,WSW,255,6.0,7.0,74,0.00,,,0.00,Wunderground v.1.15,2013-02-03 00:34:00,
2013-02-02 16:39:00,59.5,51.6,30.23,WSW,237,5.0,8.0,75,0.00,,,0.00,Wunderground v.1.15,2013-02-03 00:39:00,
2013-02-02 16:40:00,59.5,51.6,30.23,WSW,249,5.0,6.0,75,0.00,,,0.00,Wunderground v.1.15,2013-02-03 00:40:00,
2013-02-02 16:45:00,59.4,51.5,30.24,WSW,256,5.0,6.0,75,0.00,,,0.00,Wunderground v.1.15,2013-02-03 00:45:00,
2013-02-02 16:46:00,59.4,51.5,30.23,WSW,256,5.0,7.0,75,0.00,,,0.00,Wunderground v.1.15,2013-02-03 00:46:00,
2013-02-02 16:51:00,59.3,51.4,30.24,WSW,253,5.0,5.0,75,0.00,,,0.00,Wunderground v.1.15,2013-02-03 00:51:00,
2013-02-02 16:52:00,59.3,51.4,30.24,WSW,253,5.0,5.0,75,0.00,,,0.00,Wunderground v.1.15,2013-02-03 00:52:00,
2013-02-02 16:54:00,59.1,51.2,30.24,WSW,258,5.0,5.0,75,0.00,,,0.00,Wunderground v.1.15,2013-02-03 00:54:00,
2013-02-02 16:58:00,58.7,51.2,30.24,West,264,5.0,9.0,76,0.00,,,0.00,Wunderground v.1.15,2013-02-03 00:58:00,
2013-02-02 17:02:00,58.4,51.2,30.24,WSW,253,6.0,6.0,77,0.00,,,0.00,Wunderground v.1.15,2013-02-03 01:02:00,
2013-02-02 17:03:00,58.4,51.2,30.24,WSW,251,6.0,6.0,77,0.00,,,0.00,Wunderground v.1.15,2013-02-03 01:03:00,
2013-02-02 17:08:00,57.7,50.9,30.24,WSW,249,6.0,11.0,78,0.00,,,0.00,Wunderground v.1.15,2013-02-03 01:08:00,
2013-02-02 17:09:00,57.6,50.8,30.24,WSW,258,7.0,11.0,78,0.00,,,0.00,Wunderground v.1.15,2013-02-03 01:09:00,
2013-02-02 17:10:00,57.5,50.7,30.24,WSW,256,6.0,8.0,78,0.00,,,0.00,Wunderground v.1.15,2013-02-03 01:10:00,
2013-02-02 17:13:00,57.1,50.6,30.24,WSW,253,7.0,8.0,79,0.00,,,0.00,Wunderground v.1.15,2013-02-03 01:13:00,
2013-02-02 17:15:00,56.8,50.4,30.24,WSW,251,7.0,8.0,79,0.00,,,0.00,Wunderground v.1.15,2013-02-03 01:15:00,
2013-02-02 17:16:00,56.7,50.3,30.24,WSW,251,7.0,8.0,79,0.00,,,0.00,Wunderground v.1.15,2013-02-03 01:16:00,
2013-02-02 17:19:00,56.2,50.1,30.24,WSW,256,6.0,8.0,80,0.00,,,0.00,Wunderground v.1.15,2013-02-03 01:19:00,
2013-02-02 17:21:00,55.8,49.7,30.24,WSW,248,6.0,6.0,80,0.00,,,0.00,Wunderground v.1.15,2013-02-03 01:21:00,
2013-02-02 17:26:00,54.8,49.1,30.24,WSW,251,6.0,10.0,81,0.00,,,0.00,Wunderground v.1.15,2013-02-03 01:26:00,
2013-02-02 17:27:00,54.6,48.9,30.24,WSW,257,6.0,10.0,81,0.00,,,0.00,Wunderground v.1.15,2013-02-03 01:27:00,
2013-02-02 17:28:00,54.4,48.7,30.24,West,259,5.0,10.0,81,0.00,,,0.00,Wunderground v.1.15,2013-02-03 01:28:00,
2013-02-02 17:31:00,54.1,48.7,30.24,WSW,246,6.0,6.0,82,0.00,,,0.00,Wunderground v.1.15,2013-02-03 01:31:00,
2013-02-02 17:33:00,53.9,48.5,30.24,WSW,256,6.0,6.0,82,0.00,,,0.00,Wunderground v.1.15,2013-02-03 01:33:00,
2013-02-02 17:37:00,53.6,48.6,30.24,WSW,253,6.0,8.0,83,0.00,,,0.00,Wunderground v.1.15,2013-02-03 01:37:00,
2013-02-02 17:39:00,53.4,48.4,30.24,WSW,249,7.0,10.0,83,0.00,,,0.00,Wunderground v.1.15,2013-02-03 01:39:00,
2013-02-02 17:40:00,53.4,48.4,30.24,WSW,243,7.0,8.0,83,0.00,,,0.00,Wunderground v.1.15,2013-02-03 01:40:00,
2013-02-02 17:44:00,53.2,48.2,30.24,WSW,247,7.0,8.0,83,0.00,,,0.00,Wunderground v.1.15,2013-02-03 01:44:00,
2013-02-02 17:46:00,53.1,48.1,30.25,WSW,238,7.0,8.0,83,0.00,,,0.00,Wunderground v.1.15,2013-02-03 01:46:00,
2013-02-02 17:49:00,53.0,48.3,30.25,WSW,245,7.0,10.0,84,0.00,,,0.00,Wunderground v.1.15,2013-02-03 01:49:00,
2013-02-02 17:52:00,52.8,47.8,30.25,WSW,248,7.0,9.0,83,0.00,,,0.00,Wunderground v.1.15,2013-02-03 01:52:00,
2013-02-02 17:55:00,52.7,47.7,30.25,WSW,256,8.0,10.0,83,0.00,,,0.00,Wunderground v.1.15,2013-02-03 01:55:00,
2013-02-02 17:56:00,52.7,47.7,30.25,WSW,245,8.0,10.0,83,0.00,,,0.00,Wunderground v.1.15,2013-02-03 01:56:00,
2013-02-02 17:58:00,52.6,47.6,30.25,WSW,245,8.0,10.0,83,0.00,,,0.00,Wunderground v.1.15,2013-02-03 01:58:00,
2013-02-02 18:01:00,52.5,47.5,30.25,WSW,249,8.0,8.0,83,0.00,,,0.00,Wunderground v.1.15,2013-02-03 02:01:00,
2013-02-02 18:05:00,52.3,47.6,30.25,WSW,248,9.0,12.0,84,0.00,,,0.00,Wunderground v.1.15,2013-02-03 02:05:00,
2013-02-02 18:07:00,52.3,47.6,30.25,West,260,9.0,12.0,84,0.00,,,0.00,Wunderground v.1.15,2013-02-03 02:07:00,
2013-02-02 18:11:00,52.0,47.3,30.25,West,264,8.0,9.0,84,0.00,,,0.00,Wunderground v.1.15,2013-02-03 02:11:00,
2013-02-02 18:12:00,51.9,47.5,30.25,WSW,244,9.0,9.0,85,0.00,,,0.00,Wunderground v.1.15,2013-02-03 02:12:00,
2013-02-02 18:14:00,51.8,47.4,30.25,WSW,252,8.0,10.0,85,0.00,,,0.00,Wunderground v.1.15,2013-02-03 02:14:00,
2013-02-02 18:20:00,51.8,47.4,30.25,WSW,255,8.0,9.0,85,0.00,,,0.00,Wunderground v.1.15,2013-02-03 02:20:00,
2013-02-02 18:21:00,51.9,47.5,30.25,West,261,8.0,9.0,85,0.00,,,0.00,Wunderground v.1.15,2013-02-03 02:21:00,
2013-02-02 18:27:00,52.0,47.3,30.25,WSW,256,8.0,9.0,84,0.00,,,0.00,Wunderground v.1.15,2013-02-03 02:27:00,
2013-02-02 18:28:00,52.0,47.3,30.25,WSW,256,7.0,9.0,84,0.00,,,0.00,Wunderground v.1.15,2013-02-03 02:28:00,
2013-02-02 18:29:00,52.0,47.3,30.25,WSW,253,8.0,9.0,84,0.00,,,0.00,Wunderground v.1.15,2013-02-03 02:29:00,
2013-02-02 18:34:00,51.8,47.4,30.25,West,262,7.0,8.0,85,0.00,,,0.00,Wunderground v.1.15,2013-02-03 02:34:00,
2013-02-02 18:36:00,51.6,47.2,30.25,West,261,7.0,8.0,85,0.00,,,0.00,Wunderground v.1.15,2013-02-03 02:36:00,
2013-02-02 18:40:00,51.4,47.4,30.25,WSW,258,6.0,6.0,86,0.00,,,0.00,Wunderground v.1.15,2013-02-03 02:40:00,
2013-02-02 18:41:00,51.4,47.0,30.25,West,270,6.0,6.0,85,0.00,,,0.00,Wunderground v.1.15,2013-02-03 02:41:00,
2013-02-02 18:47:00,51.4,47.4,30.25,West,262,6.0,7.0,86,0.00,,,0.00,Wunderground v.1.15,2013-02-03 02:47:00,
2013-02-02 18:48:00,51.5,47.5,30.25,West,260,6.0,7.0,86,0.00,,,0.00,Wunderground v.1.15,2013-02-03 02:48:00,
2013-02-02 18:51:00,51.6,47.5,30.25,WSW,253,5.0,5.0,86,0.00,,,0.00,Wunderground v.1.15,2013-02-03 02:51:00,
2013-02-02 18:53:00,51.7,47.6,30.25,WSW,258,5.0,5.0,86,0.00,,,0.00,Wunderground v.1.15,2013-02-03 02:53:00,
2013-02-02 18:54:00,51.7,47.6,30.25,WSW,256,5.0,5.0,86,0.00,,,0.00,Wunderground v.1.15,2013-02-03 02:54:00,
2013-02-02 18:56:00,51.7,47.6,30.25,West,261,5.0,7.0,86,0.00,,,0.00,Wunderground v.1.15,2013-02-03 02:56:00,
2013-02-02 18:59:00,51.6,47.5,30.25,West,260,5.0,7.0,86,0.00,,,0.00,Wunderground v.1.15,2013-02-03 02:59:00,
2013-02-02 19:02:00,51.4,47.4,30.25,West,264,5.0,7.0,86,0.00,,,0.00,Wunderground v.1.15,2013-02-03 03:02:00,
2013-02-02 19:05:00,51.3,47.3,30.25,WSW,255,5.0,7.0,86,0.00,,,0.00,Wunderground v.1.15,2013-02-03 03:05:00,
2013-02-02 19:07:00,51.3,47.6,30.25,WSW,254,5.0,8.0,87,0.00,,,0.00,Wunderground v.1.15,2013-02-03 03:07:00,
2013-02-02 19:10:00,51.4,47.4,30.25,WSW,256,6.0,6.0,86,0.00,,,0.00,Wunderground v.1.15,2013-02-03 03:10:00,
2013-02-02 19:13:00,51.3,47.3,30.25,WSW,250,6.0,6.0,86,0.00,,,0.00,Wunderground v.1.15,2013-02-03 03:13:00,
2013-02-02 19:14:00,51.2,47.2,30.26,WSW,251,6.0,6.0,86,0.00,,,0.00,Wunderground v.1.15,2013-02-03 03:14:00,
2013-02-02 19:15:00,51.2,47.2,30.26,WSW,257,6.0,6.0,86,0.00,,,0.00,Wunderground v.1.15,2013-02-03 03:15:00,
2013-02-02 19:21:00,50.7,47.0,30.26,WSW,249,6.0,7.0,87,0.00,,,0.00,Wunderground v.1.15,2013-02-03 03:21:00,
2013-02-02 19:25:00,50.4,46.7,30.26,WSW,247,6.0,7.0,87,0.00,,,0.00,Wunderground v.1.15,2013-02-03 03:25:00,
2013-02-02 19:27:00,50.3,46.6,30.25,WSW,247,6.0,7.0,87,0.00,,,0.00,Wunderground v.1.15,2013-02-03 03:27:00,
2013-02-02 19:31:00,50.0,46.6,30.26,WSW,247,7.0,7.0,88,0.00,,,0.00,Wunderground v.1.15,2013-02-03 03:31:00,
2013-02-02 19:32:00,49.9,46.5,30.26,WSW,247,6.0,7.0,88,0.00,,,0.00,Wunderground v.1.15,2013-02-03 03:32:00,
2013-02-02 19:37:00,49.6,46.2,30.25,West,264,6.0,8.0,88,0.00,,,0.00,Wunderground v.1.15,2013-02-03 03:37:00,
2013-02-02 19:40:00,49.5,46.1,30.26,West,264,6.0,6.0,88,0.00,,,0.00,Wunderground v.1.15,2013-02-03 03:40:00,
2013-02-02 19:42:00,49.4,46.0,30.25,West,265,6.0,6.0,88,0.00,,,0.00,Wunderground v.1.15,2013-02-03 03:42:00,
2013-02-02 19:43:00,49.4,46.0,30.25,West,270,6.0,6.0,88,0.00,,,0.00,Wunderground v.1.15,2013-02-03 03:43:00,
2013-02-02 19:44:00,49.4,46.3,30.25,WSW,256,6.0,6.0,89,0.00,,,0.00,Wunderground v.1.15,2013-02-03 03:44:00,
2013-02-02 19:46:00,49.3,46.2,30.25,WSW,250,6.0,7.0,89,0.00,,,0.00,Wunderground v.1.15,2013-02-03 03:46:00,
2013-02-02 19:50:00,49.3,45.9,30.25,WSW,256,6.0,6.0,88,0.00,,,0.00,Wunderground v.1.15,2013-02-03 03:50:00,
2013-02-02 19:51:00,49.2,46.1,30.25,WSW,251,6.0,6.0,89,0.00,,,0.00,Wunderground v.1.15,2013-02-03 03:51:00,
2013-02-02 19:56:00,49.0,45.9,30.25,WSW,251,6.0,7.0,89,0.00,,,0.00,Wunderground v.1.15,2013-02-03 03:56:00,
2013-02-02 19:58:00,49.0,45.9,30.25,WSW,254,6.0,7.0,89,0.00,,,0.00,Wunderground v.1.15,2013-02-03 03:58:00,
2013-02-02 20:02:00,48.9,45.8,30.25,West,268,6.0,7.0,89,0.00,,,0.00,Wunderground v.1.15,2013-02-03 04:02:00,
2013-02-02 20:05:00,48.9,45.8,30.25,West,266,6.0,7.0,89,0.00,,,0.00,Wunderground v.1.15,2013-02-03 04:05:00,
2013-02-02 20:08:00,48.8,45.7,30.25,WSW,256,6.0,7.0,89,0.00,,,0.00,Wunderground v.1.15,2013-02-03 04:08:00,
2013-02-02 20:12:00,48.8,46.0,30.26,WSW,254,5.0,6.0,90,0.00,,,0.00,Wunderground v.1.15,2013-02-03 04:12:00,
2013-02-02 20:16:00,48.7,45.9,30.25,West,261,5.0,7.0,90,0.00,,,0.00,Wunderground v.1.15,2013-02-03 04:16:00,
2013-02-02 20:20:00,48.7,45.9,30.25,West,266,5.0,5.0,90,0.00,,,0.00,Wunderground v.1.15,2013-02-03 04:20:00,
2013-02-02 20:21:00,48.7,45.9,30.25,West,264,5.0,5.0,90,0.00,,,0.00,Wunderground v.1.15,2013-02-03 04:21:00,
2013-02-02 20:24:00,48.6,45.8,30.25,West,266,5.0,5.0,90,0.00,,,0.00,Wunderground v.1.15,2013-02-03 04:24:00,
2013-02-02 20:26:00,48.6,45.8,30.25,West,270,5.0,5.0,90,0.00,,,0.00,Wunderground v.1.15,2013-02-03 04:26:00,
2013-02-02 20:28:00,48.6,45.8,30.26,West,270,4.0,5.0,90,0.00,,,0.00,Wunderground v.1.15,2013-02-03 04:28:00,
2013-02-02 20:29:00,48.6,45.8,30.25,West,270,4.0,5.0,90,0.00,,,0.00,Wunderground v.1.15,2013-02-03 04:29:00,
2013-02-02 20:34:00,48.5,45.7,30.26,West,264,3.0,5.0,90,0.00,,,0.00,Wunderground v.1.15,2013-02-03 04:34:00,
2013-02-02 20:36:00,48.5,45.7,30.25,West,271,2.0,5.0,90,0.00,,,0.00,Wunderground v.1.15,2013-02-03 04:36:00,
2013-02-02 20:39:00,48.4,45.6,30.26,West,274,2.0,5.0,90,0.00,,,0.00,Wunderground v.1.15,2013-02-03 04:39:00,
2013-02-02 20:41:00,48.4,45.6,30.25,West,274,2.0,3.0,90,0.00,,,0.00,Wunderground v.1.15,2013-02-03 04:41:00,
2013-02-02 20:47:00,48.2,45.4,30.25,West,274,2.0,4.0,90,0.00,,,0.00,Wunderground v.1.15,2013-02-03 04:47:00,
2013-02-02 20:49:00,48.1,45.3,30.25,West,276,2.0,4.0,90,0.00,,,0.00,Wunderground v.1.15,2013-02-03 04:49:00,
2013-02-02 20:53:00,48.0,45.2,30.26,West,276,2.0,4.0,90,0.00,,,0.00,Wunderground v.1.15,2013-02-03 04:53:00,
2013-02-02 20:54:00,48.0,45.5,30.25,West,276,2.0,4.0,91,0.00,,,0.00,Wunderground v.1.15,2013-02-03 04:54:00,
2013-02-02 20:57:00,47.9,45.4,30.25,West,276,2.0,4.0,91,0.00,,,0.00,Wunderground v.1.15,2013-02-03 04:57:00,
2013-02-02 20:59:00,47.9,45.4,30.26,West,276,2.0,4.0,91,0.00,,,0.00,Wunderground v.1.15,2013-02-03 04:59:00,
2013-02-02 21:01:00,47.8,45.3,30.26,West,276,2.0,3.0,91,0.00,,,0.00,Wunderground v.1.15,2013-02-03 05:01:00,
2013-02-02 21:02:00,47.8,45.3,30.26,West,276,2.0,3.0,91,0.00,,,0.00,Wunderground v.1.15,2013-02-03 05:02:00,
2013-02-02 21:03:00,47.8,45.3,30.26,West,276,2.0,3.0,91,0.00,,,0.00,Wunderground v.1.15,2013-02-03 05:03:00,
2013-02-02 21:06:00,47.7,45.2,30.26,West,276,1.0,3.0,91,0.00,,,0.00,Wunderground v.1.15,2013-02-03 05:06:00,
2013-02-02 21:08:00,47.7,45.2,30.26,West,276,1.0,3.0,91,0.00,,,0.00,Wunderground v.1.15,2013-02-03 05:08:00,
2013-02-02 21:12:00,47.7,45.2,30.26,West,276,1.0,3.0,91,0.00,,,0.00,Wunderground v.1.15,2013-02-03 05:12:00,
2013-02-02 21:13:00,47.7,45.2,30.26,West,276,1.0,3.0,91,0.00,,,0.00,Wunderground v.1.15,2013-02-03 05:13:00,
2013-02-02 21:16:00,47.6,45.1,30.26,West,277,2.0,3.0,91,0.00,,,0.00,Wunderground v.1.15,2013-02-03 05:16:00,
2013-02-02 21:21:00,47.6,45.1,30.26,West,276,2.0,3.0,91,0.00,,,0.00,Wunderground v.1.15,2013-02-03 05:21:00,
2013-02-02 21:25:00,47.5,45.0,30.26,West,277,2.0,3.0,91,0.00,,,0.00,Wunderground v.1.15,2013-02-03 05:25:00,
2013-02-02 21:26:00,47.5,45.0,30.26,West,276,2.0,3.0,91,0.00,,,0.00,Wunderground v.1.15,2013-02-03 05:26:00,
2013-02-02 21:27:00,47.5,45.0,30.26,West,276,2.0,3.0,91,0.00,,,0.00,Wunderground v.1.15,2013-02-03 05:27:00,
2013-02-02 21:28:00,47.5,45.0,30.26,West,277,2.0,3.0,91,0.00,,,0.00,Wunderground v.1.15,2013-02-03 05:28:00,
2013-02-02 21:34:00,47.4,44.9,30.26,West,277,1.0,3.0,91,0.00,,,0.00,Wunderground v.1.15,2013-02-03 05:34:00,
2013-02-02 21:36:00,47.4,44.9,30.26,West,277,1.0,3.0,91,0.00,,,0.00,Wunderground v.1.15,2013-02-03 05:36:00,
2013-02-02 21:37:00,47.4,44.9,30.26,West,277,1.0,3.0,91,0.00,,,0.00,Wunderground v.1.15,2013-02-03 05:37:00,
2013-02-02 21:41:00,47.3,44.8,30.26,West,277,1.0,3.0,91,0.00,,,0.00,Wunderground v.1.15,2013-02-03 05:41:00,
2013-02-02 21:42:00,47.3,44.8,30.26,West,276,1.0,3.0,91,0.00,,,0.00,Wunderground v.1.15,2013-02-03 05:42:00,
2013-02-02 21:43:00,47.2,44.7,30.26,West,277,1.0,3.0,91,0.00,,,0.00,Wunderground v.1.15,2013-02-03 05:43:00,
2013-02-02 21:46:00,47.2,44.7,30.26,West,277,1.0,3.0,91,0.00,,,0.00,Wunderground v.1.15,2013-02-03 05:46:00,
2013-02-02 21:50:00,47.2,44.7,30.26,West,277,1.0,1.0,91,0.00,,,0.00,Wunderground v.1.15,2013-02-03 05:50:00,
2013-02-02 21:51:00,47.1,44.6,30.26,West,277,1.0,3.0,91,0.00,,,0.00,Wunderground v.1.15,2013-02-03 05:51:00,
2013-02-02 21:54:00,47.1,44.6,30.26,West,277,1.0,3.0,91,0.00,,,0.00,Wunderground v.1.15,2013-02-03 05:54:00,
2013-02-02 21:56:00,47.0,44.5,30.26,West,277,1.0,3.0,91,0.00,,,0.00,Wunderground v.1.15,2013-02-03 05:56:00,
2013-02-02 21:58:00,47.0,44.5,30.26,West,277,0.0,3.0,91,0.00,,,0.00,Wunderground v.1.15,2013-02-03 05:58:00,
2013-02-02 21:59:00,47.0,44.5,30.26,West,277,0.0,3.0,91,0.00,,,0.00,Wunderground v.1.15,2013-02-03 05:59:00,
2013-02-02 22:01:00,47.0,44.5,30.26,West,277,1.0,3.0,91,0.00,,,0.00,Wunderground v.1.15,2013-02-03 06:01:00,
2013-02-02 22:03:00,46.9,44.4,30.25,West,276,1.0,4.0,91,0.00,,,0.00,Wunderground v.1.15,2013-02-03 06:03:00,
2013-02-02 22:05:00,46.8,44.3,30.26,West,277,2.0,4.0,91,0.00,,,0.00,Wunderground v.1.15,2013-02-03 06:05:00,
2013-02-02 22:11:00,46.4,43.9,30.26,West,276,1.0,3.0,91,0.00,,,0.00,Wunderground v.1.15,2013-02-03 06:11:00,
2013-02-02 22:12:00,46.3,43.5,30.25,West,276,1.0,3.0,90,0.00,,,0.00,Wunderground v.1.15,2013-02-03 06:12:00,
2013-02-02 22:13:00,46.2,43.7,30.26,West,277,1.0,3.0,91,0.00,,,0.00,Wunderground v.1.15,2013-02-03 06:13:00,
2013-02-02 22:17:00,46.1,43.9,30.26,West,277,1.0,3.0,92,0.00,,,0.00,Wunderground v.1.15,2013-02-03 06:17:00,
2013-02-02 22:18:00,46.1,43.9,30.25,West,277,1.0,3.0,92,0.00,,,0.00,Wunderground v.1.15,2013-02-03 06:18:00,
2013-02-02 22:20:00,46.2,44.0,30.26,West,276,1.0,3.0,92,0.00,,,0.00,Wunderground v.1.15,2013-02-03 06:20:00,
2013-02-02 22:24:00,46.2,44.0,30.26,West,277,1.0,3.0,92,0.00,,,0.00,Wunderground v.1.15,2013-02-03 06:24:00,
2013-02-02 22:27:00,46.1,43.9,30.26,West,276,1.0,3.0,92,0.00,,,0.00,Wunderground v.1.15,2013-02-03 06:27:00,
2013-02-02 22:28:00,46.0,43.5,30.26,West,277,1.0,3.0,91,0.00,,,0.00,Wunderground v.1.15,2013-02-03 06:28:00,
2013-02-02 22:29:00,45.9,43.4,30.26,West,276,0.0,3.0,91,0.00,,,0.00,Wunderground v.1.15,2013-02-03 06:29:00,
2013-02-02 22:30:00,45.7,43.2,30.26,West,277,0.0,3.0,91,0.00,,,0.00,Wunderground v.1.15,2013-02-03 06:30:00,
2013-02-02 22:34:00,45.4,43.2,30.25,West,276,1.0,3.0,92,0.00,,,0.00,Wunderground v.1.15,2013-02-03 06:34:00,
2013-02-02 22:36:00,45.1,42.6,30.26,West,277,1.0,3.0,91,0.00,,,0.00,Wunderground v.1.15,2013-02-03 06:36:00,
2013-02-02 22:37:00,44.9,42.4,30.26,West,277,1.0,3.0,91,0.00,,,0.00,Wunderground v.1.15,2013-02-03 06:37:00,
2013-02-02 22:38:00,44.7,42.2,30.26,West,276,1.0,3.0,91,0.00,,,0.00,Wunderground v.1.15,2013-02-03 06:38:00,
2013-02-02 22:43:00,44.0,41.8,30.26,West,277,2.0,3.0,92,0.00,,,0.00,Wunderground v.1.15,2013-02-03 06:43:00,
2013-02-02 22:44:00,43.9,41.7,30.26,West,276,2.0,3.0,92,0.00,,,0.00,Wunderground v.1.15,2013-02-03 06:44:00,
2013-02-02 22:46:00,43.8,41.6,30.26,West,276,2.0,3.0,92,0.00,,,0.00,Wunderground v.1.15,2013-02-03 06:46:00,
2013-02-02 22:49:00,43.6,41.7,30.26,West,276,1.0,3.0,93,0.00,,,0.00,Wunderground v.1.15,2013-02-03 06:49:00,
2013-02-02 22:51:00,43.4,41.5,30.26,West,277,1.0,3.0,93,0.00,,,0.00,Wunderground v.1.15,2013-02-03 06:51:00,
2013-02-02 22:52:00,43.4,41.5,30.26,West,276,0.0,3.0,93,0.00,,,0.00,Wunderground v.1.15,2013-02-03 06:52:00,
2013-02-02 22:56:00,43.2,41.3,30.26,West,276,0.0,3.0,93,0.00,,,0.00,Wunderground v.1.15,2013-02-03 06:56:00,
2013-02-02 22:58:00,43.2,41.6,30.26,West,276,0.0,3.0,94,0.00,,,0.00,Wunderground v.1.15,2013-02-03 06:58:00,
2013-02-02 23:01:00,43.2,41.6,30.26,West,276,0.0,3.0,94,0.00,,,0.00,Wunderground v.1.15,2013-02-03 07:01:00,
2013-02-02 23:03:00,43.2,41.6,30.26,West,277,0.0,3.0,94,0.00,,,0.00,Wunderground v.1.15,2013-02-03 07:03:00,
2013-02-02 23:05:00,43.1,41.5,30.26,West,276,0.0,3.0,94,0.00,,,0.00,Wunderground v.1.15,2013-02-03 07:05:00,
2013-02-02 23:07:00,43.1,41.5,30.26,West,277,1.0,3.0,94,0.00,,,0.00,Wunderground v.1.15,2013-02-03 07:07:00,
2013-02-02 23:12:00,43.2,41.9,30.26,North,359,1.0,3.0,95,0.00,,,0.00,Wunderground v.1.15,2013-02-03 07:12:00,
2013-02-02 23:13:00,43.2,41.9,30.26,West,276,1.0,3.0,95,0.00,,,0.00,Wunderground v.1.15,2013-02-03 07:13:00,
2013-02-02 23:15:00,43.1,41.8,30.26,West,277,1.0,3.0,95,0.00,,,0.00,Wunderground v.1.15,2013-02-03 07:15:00,
2013-02-02 23:16:00,43.1,41.8,30.26,West,277,1.0,3.0,95,0.00,,,0.00,Wunderground v.1.15,2013-02-03 07:16:00,
2013-02-02 23:20:00,43.1,41.8,30.26,West,276,0.0,3.0,95,0.00,,,0.00,Wunderground v.1.15,2013-02-03 07:20:00,
2013-02-02 23:21:00,43.1,41.8,30.26,West,276,0.0,3.0,95,0.00,,,0.00,Wunderground v.1.15,2013-02-03 07:21:00,
2013-02-02 23:22:00,43.1,41.8,30.26,West,276,0.0,3.0,95,0.00,,,0.00,Wunderground v.1.15,2013-02-03 07:22:00,
2013-02-02 23:24:00,43.1,41.8,30.26,West,277,0.0,3.0,95,0.00,,,0.00,Wunderground v.1.15,2013-02-03 07:24:00,
2013-02-02 23:27:00,43.1,41.8,30.26,North,359,0.0,3.0,95,0.00,,,0.00,Wunderground v.1.15,2013-02-03 07:27:00,
2013-02-02 23:29:00,43.0,41.7,30.26,West,276,0.0,3.0,95,0.00,,,0.00,Wunderground v.1.15,2013-02-03 07:29:00,
2013-02-02 23:30:00,43.0,41.7,30.26,West,277,0.0,3.0,95,0.00,,,0.00,Wunderground v.1.15,2013-02-03 07:30:00,
2013-02-02 23:34:00,43.2,41.9,30.26,North,359,1.0,3.0,95,0.00,,,0.00,Wunderground v.1.15,2013-02-03 07:34:00,
2013-02-02 23:35:00,43.3,42.2,30.26,West,277,1.0,3.0,96,0.00,,,0.00,Wunderground v.1.15,2013-02-03 07:35:00,
2013-02-02 23:36:00,43.4,42.1,30.26,North,359,1.0,3.0,95,0.00,,,0.00,Wunderground v.1.15,2013-02-03 07:36:00,
2013-02-02 23:40:00,43.5,42.2,30.26,West,277,1.0,1.0,95,0.00,,,0.00,Wunderground v.1.15,2013-02-03 07:40:00,
2013-02-02 23:43:00,43.3,42.0,30.26,West,276,1.0,3.0,95,0.00,,,0.00,Wunderground v.1.15,2013-02-03 07:43:00,
2013-02-02 23:44:00,43.3,42.0,30.26,North,359,1.0,3.0,95,0.00,,,0.00,Wunderground v.1.15,2013-02-03 07:44:00,
2013-02-02 23:45:00,43.2,41.9,30.26,West,277,1.0,3.0,95,0.00,,,0.00,Wunderground v.1.15,2013-02-03 07:45:00,
2013-02-02 23:48:00,43.2,41.9,30.27,North,359,0.0,3.0,95,0.00,,,0.00,Wunderground v.1.15,2013-02-03 07:48:00,
2013-02-02 23:50:00,43.2,41.9,30.26,West,276,0.0,3.0,95,0.00,,,0.00,Wunderground v.1.15,2013-02-03 07:50:00,
2013-02-02 23:51:00,43.2,41.9,30.26,West,277,0.0,3.0,95,0.00,,,0.00,Wunderground v.1.15,2013-02-03 07:51:00,
2013-02-02 23:55:00,43.0,41.7,30.26,West,276,0.0,3.0,95,0.00,,,0.00,Wunderground v.1.15,2013-02-03 07:55:00,
2013-02-02 23:57:00,42.9,41.6,30.26,West,276,0.0,3.0,95,0.00,,,0.00,Wunderground v.1.15,2013-02-03 07:57:00,